PWSweather.com
Personal Weather Stations
Station Observations
EI4HQ
Cork Harbour, CobhIE

Cork HarbourCobhIE

Lat: 51.85, Lon: -8.29

Elevation: 252

Station Type: Davis Vantage Pro2

http://www.corkharbourweather.ie

High Low Average
Temperature 51.6°F10.9°C 41.5°F5.3°C 45.6°F7.6°C
Dew Point 49.6°F9.8°C 39.7°F4.3°C 42.4°F5.8°C
Winds 12.0 mph 19.3 kmh Calm Calm 5.0 mph SW8.0 kmh SW
Wind Gusts 30.0 mph48.3 kmh 1.0 mph1.6 kmh 11.0 mph17.7 kmh
Humidity 100% 74% 89%
Pressure 29.84 in1010.5 mb 29.46 in997.6 mb -
Precipitation 0.22 in5.6 mm - -
Hour Temp Dew Point Humidity Winds Wind Gusts Pressure Precip Precip Rate Daily Precip Total
12:00 AM 41.5°F5.3°C 40.1°F4.5°C 95% 4.0 mph SE6.4 kmh SE 10.0 mph16.1 kmh 29.61 in1002.7 mb 0.05 in1.3 mm 0.00 in0.0 mm 0.05 in1.3 mm
12:03 AM 41.5°F5.3°C 40.1°F4.5°C 95% 4.0 mph SE6.4 kmh SE 9.0 mph14.5 kmh 29.61 in1002.7 mb 0.05 in1.3 mm 0.00 in0.0 mm 0.05 in1.3 mm
12:06 AM 41.5°F5.3°C 40.3°F4.6°C 95% 4.0 mph SSE6.4 kmh SSE 9.0 mph14.5 kmh 29.61 in1002.7 mb 0.04 in1.0 mm 0.00 in0.0 mm 0.05 in1.3 mm
12:09 AM 41.7°F5.4°C 40.5°F4.7°C 95% 4.0 mph SSE6.4 kmh SSE 9.0 mph14.5 kmh 29.61 in1002.7 mb 0.05 in1.3 mm 0.20 in5.1 mm 0.01 in0.3 mm
12:12 AM 41.7°F5.4°C 40.5°F4.7°C 95% 4.0 mph SSE6.4 kmh SSE 9.0 mph14.5 kmh 29.61 in1002.7 mb 0.05 in1.3 mm 0.00 in0.0 mm 0.01 in0.3 mm
12:15 AM 41.9°F5.5°C 40.6°F4.8°C 95% 4.0 mph SSE6.4 kmh SSE 7.0 mph11.3 kmh 29.60 in1002.4 mb 0.05 in1.3 mm 0.00 in0.0 mm 0.01 in0.3 mm
12:18 AM 42.1°F5.6°C 40.6°F4.8°C 95% 4.0 mph SSE6.4 kmh SSE 7.0 mph11.3 kmh 29.60 in1002.4 mb 0.05 in1.3 mm 0.00 in0.0 mm 0.01 in0.3 mm
12:21 AM 42.1°F5.6°C 40.8°F4.9°C 95% 5.0 mph S8.0 kmh S 10.0 mph16.1 kmh 29.60 in1002.4 mb 0.04 in1.0 mm 0.00 in0.0 mm 0.01 in0.3 mm
12:24 AM 42.3°F5.7°C 40.8°F4.9°C 95% 5.0 mph S8.0 kmh S 10.0 mph16.1 kmh 29.59 in1002.0 mb 0.04 in1.0 mm 0.00 in0.0 mm 0.01 in0.3 mm
12:27 AM 42.3°F5.7°C 40.8°F4.9°C 95% 6.0 mph S9.7 kmh S 10.0 mph16.1 kmh 29.59 in1002.0 mb 0.03 in0.8 mm 0.00 in0.0 mm 0.01 in0.3 mm
12:30 AM 42.3°F5.7°C 41.0°F5.0°C 95% 6.0 mph S9.7 kmh S 8.0 mph12.9 kmh 29.59 in1002.0 mb 0.03 in0.8 mm 0.00 in0.0 mm 0.01 in0.3 mm
12:33 AM 42.3°F5.7°C 41.0°F5.0°C 95% 5.0 mph S8.0 kmh S 8.0 mph12.9 kmh 29.58 in1001.7 mb 0.03 in0.8 mm 0.00 in0.0 mm 0.01 in0.3 mm
12:36 AM 42.3°F5.7°C 41.0°F5.0°C 95% 5.0 mph S8.0 kmh S 7.0 mph11.3 kmh 29.58 in1001.7 mb 0.02 in0.5 mm 0.00 in0.0 mm 0.01 in0.3 mm
12:39 AM 42.4°F5.8°C 41.0°F5.0°C 95% 5.0 mph S8.0 kmh S 8.0 mph12.9 kmh 29.58 in1001.7 mb 0.02 in0.5 mm 0.00 in0.0 mm 0.01 in0.3 mm
12:42 AM 42.4°F5.8°C 41.0°F5.0°C 95% 5.0 mph SSE8.0 kmh SSE 8.0 mph12.9 kmh 29.57 in1001.4 mb 0.02 in0.5 mm 0.00 in0.0 mm 0.01 in0.3 mm
12:45 AM 42.4°F5.8°C 41.0°F5.0°C 95% 5.0 mph SSE8.0 kmh SSE 8.0 mph12.9 kmh 29.57 in1001.4 mb 0.02 in0.5 mm 0.00 in0.0 mm 0.01 in0.3 mm
12:48 AM 42.3°F5.7°C 41.0°F5.0°C 95% 4.0 mph SSE6.4 kmh SSE 8.0 mph12.9 kmh 29.57 in1001.4 mb 0.02 in0.5 mm 0.00 in0.0 mm 0.02 in0.5 mm
12:51 AM 42.3°F5.7°C 41.0°F5.0°C 95% 4.0 mph SE6.4 kmh SE 8.0 mph12.9 kmh 29.56 in1001.0 mb 0.02 in0.5 mm 0.00 in0.0 mm 0.02 in0.5 mm
12:54 AM 42.3°F5.7°C 41.0°F5.0°C 95% 4.0 mph SE6.4 kmh SE 7.0 mph11.3 kmh 29.56 in1001.0 mb 0.02 in0.5 mm 0.00 in0.0 mm 0.02 in0.5 mm
12:57 AM 42.3°F5.7°C 41.0°F5.0°C 95% 3.0 mph SE4.8 kmh SE 7.0 mph11.3 kmh 29.56 in1001.0 mb 0.02 in0.5 mm 0.00 in0.0 mm 0.02 in0.5 mm
01:00 AM 42.3°F5.7°C 41.0°F5.0°C 95% 3.0 mph SE4.8 kmh SE 5.0 mph8.0 kmh 29.55 in1000.7 mb 0.02 in0.5 mm 0.00 in0.0 mm 0.02 in0.5 mm
01:03 AM 42.3°F5.7°C 41.0°F5.0°C 95% 2.0 mph SE3.2 kmh SE 4.0 mph6.4 kmh 29.55 in1000.7 mb 0.02 in0.5 mm 0.00 in0.0 mm 0.02 in0.5 mm
01:06 AM 42.4°F5.8°C 41.0°F5.0°C 95% 3.0 mph SE4.8 kmh SE 7.0 mph11.3 kmh 29.55 in1000.7 mb 0.02 in0.5 mm 0.00 in0.0 mm 0.02 in0.5 mm
01:09 AM 42.4°F5.8°C 41.0°F5.0°C 95% 3.0 mph SE4.8 kmh SE 7.0 mph11.3 kmh 29.54 in1000.3 mb 0.01 in0.3 mm 0.00 in0.0 mm 0.02 in0.5 mm
01:12 AM 42.4°F5.8°C 41.0°F5.0°C 95% 3.0 mph ESE4.8 kmh ESE 7.0 mph11.3 kmh 29.54 in1000.3 mb 0.01 in0.3 mm 0.00 in0.0 mm 0.02 in0.5 mm
01:15 AM 42.4°F5.8°C 41.0°F5.0°C 95% 3.0 mph ESE4.8 kmh ESE 6.0 mph9.7 kmh 29.54 in1000.3 mb 0.01 in0.3 mm 0.00 in0.0 mm 0.02 in0.5 mm
01:18 AM 42.4°F5.8°C 41.0°F5.0°C 95% 3.0 mph E4.8 kmh E 7.0 mph11.3 kmh 29.54 in1000.3 mb 0.01 in0.3 mm 0.00 in0.0 mm 0.02 in0.5 mm
01:21 AM 42.4°F5.8°C 41.0°F5.0°C 95% 3.0 mph E4.8 kmh E 7.0 mph11.3 kmh 29.54 in1000.3 mb 0.01 in0.3 mm 0.00 in0.0 mm 0.02 in0.5 mm
01:24 AM 42.3°F5.7°C 41.0°F5.0°C 95% 4.0 mph E6.4 kmh E 7.0 mph11.3 kmh 29.54 in1000.3 mb 0.01 in0.3 mm 0.00 in0.0 mm 0.02 in0.5 mm
01:27 AM 42.3°F5.7°C 41.0°F5.0°C 95% 4.0 mph E6.4 kmh E 7.0 mph11.3 kmh 29.54 in1000.3 mb 0.01 in0.3 mm 0.00 in0.0 mm 0.02 in0.5 mm
01:30 AM 42.3°F5.7°C 41.0°F5.0°C 95% 4.0 mph E6.4 kmh E 7.0 mph11.3 kmh 29.53 in1000.0 mb 0.01 in0.3 mm 0.00 in0.0 mm 0.02 in0.5 mm
01:33 AM 42.3°F5.7°C 41.0°F5.0°C 95% 3.0 mph E4.8 kmh E 7.0 mph11.3 kmh 29.53 in1000.0 mb 0.01 in0.3 mm 0.00 in0.0 mm 0.02 in0.5 mm
01:36 AM 42.3°F5.7°C 41.0°F5.0°C 95% 3.0 mph E4.8 kmh E 6.0 mph9.7 kmh 29.53 in1000.0 mb 0.01 in0.3 mm 0.00 in0.0 mm 0.02 in0.5 mm
01:39 AM 42.3°F5.7°C 41.0°F5.0°C 95% 3.0 mph E4.8 kmh E 6.0 mph9.7 kmh 29.53 in1000.0 mb 0.01 in0.3 mm 0.00 in0.0 mm 0.02 in0.5 mm
01:42 AM 42.3°F5.7°C 40.8°F4.9°C 95% 3.0 mph E4.8 kmh E 6.0 mph9.7 kmh 29.53 in1000.0 mb 0.01 in0.3 mm 0.00 in0.0 mm 0.02 in0.5 mm
01:45 AM 42.3°F5.7°C 40.8°F4.9°C 95% 3.0 mph E4.8 kmh E 7.0 mph11.3 kmh 29.52 in999.7 mb 0.01 in0.3 mm 0.00 in0.0 mm 0.02 in0.5 mm
01:48 AM 42.3°F5.7°C 41.0°F5.0°C 95% 3.0 mph E4.8 kmh E 7.0 mph11.3 kmh 29.52 in999.7 mb 0.00 in0.0 mm 0.00 in0.0 mm 0.02 in0.5 mm
01:51 AM 42.3°F5.7°C 41.0°F5.0°C 95% 3.0 mph E4.8 kmh E 7.0 mph11.3 kmh 29.52 in999.7 mb 0.00 in0.0 mm 0.00 in0.0 mm 0.02 in0.5 mm
01:54 AM 42.3°F5.7°C 41.0°F5.0°C 95% 3.0 mph E4.8 kmh E 6.0 mph9.7 kmh 29.52 in999.7 mb 0.00 in0.0 mm 0.00 in0.0 mm 0.02 in0.5 mm
01:57 AM 42.3°F5.7°C 41.2°F5.1°C 96% 3.0 mph E4.8 kmh E 6.0 mph9.7 kmh 29.52 in999.7 mb 0.00 in0.0 mm 0.00 in0.0 mm 0.02 in0.5 mm
02:00 AM 42.3°F5.7°C 41.2°F5.1°C 96% 2.0 mph E3.2 kmh E 6.0 mph9.7 kmh 29.52 in999.7 mb 0.00 in0.0 mm 0.00 in0.0 mm 0.02 in0.5 mm
02:03 AM 42.3°F5.7°C 41.2°F5.1°C 96% 2.0 mph E3.2 kmh E 4.0 mph6.4 kmh 29.52 in999.7 mb 0.00 in0.0 mm 0.00 in0.0 mm 0.02 in0.5 mm
02:06 AM 42.3°F5.7°C 41.2°F5.1°C 96% 2.0 mph E3.2 kmh E 4.0 mph6.4 kmh 29.52 in999.7 mb 0.00 in0.0 mm 0.00 in0.0 mm 0.02 in0.5 mm
02:09 AM 42.3°F5.7°C 41.2°F5.1°C 96% 3.0 mph E4.8 kmh E 6.0 mph9.7 kmh 29.52 in999.7 mb 0.00 in0.0 mm 0.00 in0.0 mm 0.02 in0.5 mm
02:12 AM 42.3°F5.7°C 41.2°F5.1°C 96% 3.0 mph E4.8 kmh E 8.0 mph12.9 kmh 29.51 in999.3 mb 0.00 in0.0 mm 0.00 in0.0 mm 0.02 in0.5 mm
02:15 AM 42.3°F5.7°C 41.2°F5.1°C 96% 3.0 mph E4.8 kmh E 8.0 mph12.9 kmh 29.51 in999.3 mb 0.00 in0.0 mm 0.00 in0.0 mm 0.02 in0.5 mm
02:18 AM 42.3°F5.7°C 41.2°F5.1°C 96% 4.0 mph E6.4 kmh E 8.0 mph12.9 kmh 29.51 in999.3 mb 0.01 in0.3 mm 0.20 in5.1 mm 0.02 in0.5 mm
02:21 AM 42.3°F5.7°C 41.2°F5.1°C 96% 4.0 mph E6.4 kmh E 8.0 mph12.9 kmh 29.51 in999.3 mb 0.01 in0.3 mm 0.00 in0.0 mm 0.02 in0.5 mm
02:24 AM 42.3°F5.7°C 41.2°F5.1°C 96% 5.0 mph E8.0 kmh E 8.0 mph12.9 kmh 29.51 in999.3 mb 0.01 in0.3 mm 0.00 in0.0 mm 0.02 in0.5 mm
02:27 AM 42.4°F5.8°C 41.4°F5.2°C 96% 5.0 mph E8.0 kmh E 8.0 mph12.9 kmh 29.51 in999.3 mb 0.01 in0.3 mm 0.00 in0.0 mm 0.02 in0.5 mm
02:30 AM 42.4°F5.8°C 41.4°F5.2°C 96% 5.0 mph E8.0 kmh E 8.0 mph12.9 kmh 29.51 in999.3 mb 0.01 in0.3 mm 0.00 in0.0 mm 0.02 in0.5 mm
02:33 AM 42.4°F5.8°C 41.4°F5.2°C 96% 5.0 mph E8.0 kmh E 8.0 mph12.9 kmh 29.51 in999.3 mb 0.01 in0.3 mm 0.00 in0.0 mm 0.02 in0.5 mm
02:36 AM 42.4°F5.8°C 41.4°F5.2°C 96% 5.0 mph E8.0 kmh E 8.0 mph12.9 kmh 29.51 in999.3 mb 0.01 in0.3 mm 0.00 in0.0 mm 0.02 in0.5 mm
02:39 AM 42.4°F5.8°C 41.4°F5.2°C 96% 4.0 mph E6.4 kmh E 8.0 mph12.9 kmh 29.51 in999.3 mb 0.01 in0.3 mm 0.00 in0.0 mm 0.02 in0.5 mm
02:42 AM 42.4°F5.8°C 41.4°F5.2°C 96% 4.0 mph E6.4 kmh E 8.0 mph12.9 kmh 29.51 in999.3 mb 0.01 in0.3 mm 0.00 in0.0 mm 0.02 in0.5 mm
02:45 AM 42.4°F5.8°C 41.4°F5.2°C 96% 4.0 mph E6.4 kmh E 8.0 mph12.9 kmh 29.51 in999.3 mb 0.01 in0.3 mm 0.00 in0.0 mm 0.02 in0.5 mm
02:48 AM 42.4°F5.8°C 41.4°F5.2°C 96% 4.0 mph E6.4 kmh E 7.0 mph11.3 kmh 29.51 in999.3 mb 0.02 in0.5 mm 0.20 in5.1 mm 0.03 in0.8 mm
02:51 AM 42.4°F5.8°C 41.4°F5.2°C 96% 4.0 mph E6.4 kmh E 8.0 mph12.9 kmh 29.51 in999.3 mb 0.02 in0.5 mm 0.00 in0.0 mm 0.03 in0.8 mm
02:54 AM 42.4°F5.8°C 41.4°F5.2°C 96% 5.0 mph E8.0 kmh E 9.0 mph14.5 kmh 29.50 in999.0 mb 0.02 in0.5 mm 0.00 in0.0 mm 0.03 in0.8 mm
02:57 AM 42.4°F5.8°C 41.4°F5.2°C 96% 5.0 mph E8.0 kmh E 9.0 mph14.5 kmh 29.50 in999.0 mb 0.02 in0.5 mm 0.00 in0.0 mm 0.03 in0.8 mm
03:00 AM 42.3°F5.7°C 42.3°F5.7°C 100% 5.0 mph E8.0 kmh E 10.0 mph16.1 kmh 29.50 in999.0 mb 0.02 in0.5 mm 0.00 in0.0 mm 0.03 in0.8 mm
03:03 AM 42.4°F5.8°C 42.4°F5.8°C 100% 5.0 mph E8.0 kmh E 10.0 mph16.1 kmh 29.50 in999.0 mb 0.02 in0.5 mm 0.00 in0.0 mm 0.03 in0.8 mm
03:06 AM 42.3°F5.7°C 41.2°F5.1°C 96% 4.0 mph E6.4 kmh E 10.0 mph16.1 kmh 29.50 in999.0 mb 0.02 in0.5 mm 0.00 in0.0 mm 0.03 in0.8 mm
03:09 AM 42.3°F5.7°C 41.2°F5.1°C 96% 3.0 mph E4.8 kmh E 7.0 mph11.3 kmh 29.50 in999.0 mb 0.02 in0.5 mm 0.00 in0.0 mm 0.03 in0.8 mm
03:12 AM 42.3°F5.7°C 41.2°F5.1°C 96% 3.0 mph E4.8 kmh E 8.0 mph12.9 kmh 29.50 in999.0 mb 0.02 in0.5 mm 0.00 in0.0 mm 0.03 in0.8 mm
03:15 AM 42.3°F5.7°C 41.2°F5.1°C 96% 4.0 mph E6.4 kmh E 10.0 mph16.1 kmh 29.49 in998.6 mb 0.02 in0.5 mm 0.00 in0.0 mm 0.03 in0.8 mm
03:18 AM 42.3°F5.7°C 41.2°F5.1°C 96% 5.0 mph E8.0 kmh E 10.0 mph16.1 kmh 29.49 in998.6 mb 0.01 in0.3 mm 0.00 in0.0 mm 0.03 in0.8 mm
03:21 AM 42.3°F5.7°C 41.2°F5.1°C 96% 5.0 mph E8.0 kmh E 10.0 mph16.1 kmh 29.49 in998.6 mb 0.01 in0.3 mm 0.00 in0.0 mm 0.03 in0.8 mm
03:24 AM 42.3°F5.7°C 41.2°F5.1°C 96% 5.0 mph ESE8.0 kmh ESE 10.0 mph16.1 kmh 29.49 in998.6 mb 0.01 in0.3 mm 0.00 in0.0 mm 0.03 in0.8 mm
03:27 AM 42.3°F5.7°C 41.2°F5.1°C 96% 4.0 mph ESE6.4 kmh ESE 9.0 mph14.5 kmh 29.49 in998.6 mb 0.01 in0.3 mm 0.00 in0.0 mm 0.03 in0.8 mm
03:30 AM 42.3°F5.7°C 41.2°F5.1°C 96% 5.0 mph E8.0 kmh E 9.0 mph14.5 kmh 29.49 in998.6 mb 0.01 in0.3 mm 0.00 in0.0 mm 0.03 in0.8 mm
03:33 AM 42.3°F5.7°C 41.2°F5.1°C 96% 5.0 mph E8.0 kmh E 9.0 mph14.5 kmh 29.48 in998.3 mb 0.01 in0.3 mm 0.00 in0.0 mm 0.03 in0.8 mm
03:36 AM 42.3°F5.7°C 41.2°F5.1°C 96% 5.0 mph E8.0 kmh E 9.0 mph14.5 kmh 29.48 in998.3 mb 0.01 in0.3 mm 0.00 in0.0 mm 0.03 in0.8 mm
03:39 AM 42.3°F5.7°C 41.2°F5.1°C 96% 5.0 mph E8.0 kmh E 9.0 mph14.5 kmh 29.48 in998.3 mb 0.01 in0.3 mm 0.00 in0.0 mm 0.03 in0.8 mm
03:42 AM 42.3°F5.7°C 41.2°F5.1°C 96% 5.0 mph E8.0 kmh E 10.0 mph16.1 kmh 29.48 in998.3 mb 0.01 in0.3 mm 0.00 in0.0 mm 0.03 in0.8 mm
03:45 AM 42.3°F5.7°C 41.2°F5.1°C 96% 5.0 mph E8.0 kmh E 10.0 mph16.1 kmh 29.48 in998.3 mb 0.01 in0.3 mm 0.00 in0.0 mm 0.03 in0.8 mm
03:48 AM 42.3°F5.7°C 41.2°F5.1°C 96% 6.0 mph E9.7 kmh E 10.0 mph16.1 kmh 29.48 in998.3 mb 0.00 in0.0 mm 0.00 in0.0 mm 0.03 in0.8 mm
03:51 AM 42.4°F5.8°C 41.4°F5.2°C 96% 6.0 mph E9.7 kmh E 11.0 mph17.7 kmh 29.48 in998.3 mb 0.00 in0.0 mm 0.00 in0.0 mm 0.03 in0.8 mm
03:54 AM 42.4°F5.8°C 41.4°F5.2°C 96% 6.0 mph E9.7 kmh E 11.0 mph17.7 kmh 29.48 in998.3 mb 0.00 in0.0 mm 0.00 in0.0 mm 0.03 in0.8 mm
03:57 AM 42.4°F5.8°C 41.4°F5.2°C 96% 6.0 mph E9.7 kmh E 11.0 mph17.7 kmh 29.48 in998.3 mb 0.00 in0.0 mm 0.00 in0.0 mm 0.03 in0.8 mm
04:00 AM 42.6°F5.9°C 41.5°F5.3°C 96% 6.0 mph E9.7 kmh E 11.0 mph17.7 kmh 29.48 in998.3 mb 0.00 in0.0 mm 0.00 in0.0 mm 0.03 in0.8 mm
04:03 AM 42.6°F5.9°C 41.5°F5.3°C 96% 6.0 mph E9.7 kmh E 10.0 mph16.1 kmh 29.48 in998.3 mb 0.00 in0.0 mm 0.00 in0.0 mm 0.03 in0.8 mm
04:06 AM 42.6°F5.9°C 41.5°F5.3°C 96% 5.0 mph E8.0 kmh E 10.0 mph16.1 kmh 29.48 in998.3 mb 0.00 in0.0 mm 0.00 in0.0 mm 0.03 in0.8 mm
04:09 AM 42.6°F5.9°C 41.5°F5.3°C 96% 5.0 mph E8.0 kmh E 9.0 mph14.5 kmh 29.48 in998.3 mb 0.00 in0.0 mm 0.00 in0.0 mm 0.03 in0.8 mm
04:12 AM 42.6°F5.9°C 41.5°F5.3°C 96% 5.0 mph E8.0 kmh E 9.0 mph14.5 kmh 29.48 in998.3 mb 0.00 in0.0 mm 0.00 in0.0 mm 0.03 in0.8 mm
04:15 AM 42.6°F5.9°C 41.7°F5.4°C 96% 5.0 mph E8.0 kmh E 8.0 mph12.9 kmh 29.48 in998.3 mb 0.00 in0.0 mm 0.00 in0.0 mm 0.03 in0.8 mm
04:18 AM 42.6°F5.9°C 41.7°F5.4°C 96% 5.0 mph E8.0 kmh E 8.0 mph12.9 kmh 29.48 in998.3 mb 0.00 in0.0 mm 0.00 in0.0 mm 0.03 in0.8 mm
04:21 AM 42.6°F5.9°C 41.7°F5.4°C 96% 5.0 mph ESE8.0 kmh ESE 8.0 mph12.9 kmh 29.48 in998.3 mb 0.00 in0.0 mm 0.00 in0.0 mm 0.03 in0.8 mm
04:24 AM 42.6°F5.9°C 41.7°F5.4°C 96% 4.0 mph ESE6.4 kmh ESE 8.0 mph12.9 kmh 29.48 in998.3 mb 0.00 in0.0 mm 0.00 in0.0 mm 0.03 in0.8 mm
04:27 AM 42.8°F6.0°C 41.7°F5.4°C 96% 4.0 mph ESE6.4 kmh ESE 8.0 mph12.9 kmh 29.48 in998.3 mb 0.00 in0.0 mm 0.00 in0.0 mm 0.03 in0.8 mm
04:30 AM 42.8°F6.0°C 41.7°F5.4°C 96% 4.0 mph ESE6.4 kmh ESE 8.0 mph12.9 kmh 29.48 in998.3 mb 0.00 in0.0 mm 0.00 in0.0 mm 0.03 in0.8 mm
04:33 AM 42.8°F6.0°C 41.7°F5.4°C 96% 3.0 mph ESE4.8 kmh ESE 8.0 mph12.9 kmh 29.48 in998.3 mb 0.00 in0.0 mm 0.00 in0.0 mm 0.03 in0.8 mm
04:36 AM 43.0°F6.1°C 41.9°F5.5°C 96% 3.0 mph ESE4.8 kmh ESE 8.0 mph12.9 kmh 29.49 in998.6 mb 0.00 in0.0 mm 0.00 in0.0 mm 0.03 in0.8 mm
04:39 AM 43.0°F6.1°C 42.1°F5.6°C 97% 2.0 mph E3.2 kmh E 6.0 mph9.7 kmh 29.48 in998.3 mb 0.00 in0.0 mm 0.00 in0.0 mm 0.03 in0.8 mm
04:42 AM 43.0°F6.1°C 42.3°F5.7°C 97% 2.0 mph E3.2 kmh E 4.0 mph6.4 kmh 29.48 in998.3 mb 0.00 in0.0 mm 0.00 in0.0 mm 0.03 in0.8 mm
04:45 AM 43.0°F6.1°C 41.9°F5.5°C 96% 3.0 mph ESE4.8 kmh ESE 6.0 mph9.7 kmh 29.48 in998.3 mb 0.00 in0.0 mm 0.00 in0.0 mm 0.03 in0.8 mm
04:48 AM 43.0°F6.1°C 41.9°F5.5°C 96% 3.0 mph ESE4.8 kmh ESE 6.0 mph9.7 kmh 29.48 in998.3 mb 0.00 in0.0 mm 0.00 in0.0 mm 0.03 in0.8 mm
04:51 AM 43.2°F6.2°C 42.1°F5.6°C 96% 2.0 mph ESE3.2 kmh ESE 6.0 mph9.7 kmh 29.48 in998.3 mb 0.00 in0.0 mm 0.00 in0.0 mm 0.03 in0.8 mm
04:54 AM 43.2°F6.2°C 42.1°F5.6°C 96% 1.0 mph ESE1.6 kmh ESE 6.0 mph9.7 kmh 29.48 in998.3 mb 0.00 in0.0 mm 0.00 in0.0 mm 0.03 in0.8 mm
04:57 AM 43.2°F6.2°C 42.1°F5.6°C 96% 1.0 mph ESE1.6 kmh ESE 4.0 mph6.4 kmh 29.48 in998.3 mb 0.00 in0.0 mm 0.00 in0.0 mm 0.03 in0.8 mm
05:00 AM 43.2°F6.2°C 42.1°F5.6°C 96% 2.0 mph E3.2 kmh E 7.0 mph11.3 kmh 29.48 in998.3 mb 0.01 in0.3 mm 0.01 in0.3 mm 0.04 in1.0 mm
05:03 AM 43.2°F6.2°C 42.1°F5.6°C 96% 3.0 mph E4.8 kmh E 7.0 mph11.3 kmh 29.48 in998.3 mb 0.01 in0.3 mm 0.00 in0.0 mm 0.04 in1.0 mm
05:06 AM 43.2°F6.2°C 42.1°F5.6°C 96% 2.0 mph E3.2 kmh E 7.0 mph11.3 kmh 29.48 in998.3 mb 0.01 in0.3 mm 0.00 in0.0 mm 0.04 in1.0 mm
05:09 AM 43.2°F6.2°C 42.1°F5.6°C 96% 2.0 mph E3.2 kmh E 7.0 mph11.3 kmh 29.48 in998.3 mb 0.01 in0.3 mm 0.00 in0.0 mm 0.04 in1.0 mm
05:12 AM 43.2°F6.2°C 42.1°F5.6°C 96% 1.0 mph ESE1.6 kmh ESE 4.0 mph6.4 kmh 29.48 in998.3 mb 0.01 in0.3 mm 0.00 in0.0 mm 0.04 in1.0 mm
05:15 AM 43.2°F6.2°C 42.1°F5.6°C 96% 1.0 mph E1.6 kmh E 4.0 mph6.4 kmh 29.48 in998.3 mb 0.01 in0.3 mm 0.00 in0.0 mm 0.04 in1.0 mm
05:18 AM 43.2°F6.2°C 42.1°F5.6°C 96% 2.0 mph E3.2 kmh E 4.0 mph6.4 kmh 29.48 in998.3 mb 0.01 in0.3 mm 0.00 in0.0 mm 0.04 in1.0 mm
05:21 AM 43.2°F6.2°C 42.1°F5.6°C 96% 1.0 mph E1.6 kmh E 4.0 mph6.4 kmh 29.48 in998.3 mb 0.01 in0.3 mm 0.00 in0.0 mm 0.04 in1.0 mm
05:24 AM 43.2°F6.2°C 42.1°F5.6°C 96% 1.0 mph E1.6 kmh E 2.0 mph3.2 kmh 29.48 in998.3 mb 0.01 in0.3 mm 0.00 in0.0 mm 0.04 in1.0 mm
05:27 AM 43.2°F6.2°C 42.1°F5.6°C 96% 1.0 mph E1.6 kmh E 4.0 mph6.4 kmh 29.48 in998.3 mb 0.01 in0.3 mm 0.00 in0.0 mm 0.04 in1.0 mm
05:30 AM 43.2°F6.2°C 42.1°F5.6°C 96% 1.0 mph SE1.6 kmh SE 4.0 mph6.4 kmh 29.48 in998.3 mb 0.01 in0.3 mm 0.00 in0.0 mm 0.04 in1.0 mm
05:33 AM 43.2°F6.2°C 42.1°F5.6°C 96% 2.0 mph SE3.2 kmh SE 4.0 mph6.4 kmh 29.48 in998.3 mb 0.01 in0.3 mm 0.00 in0.0 mm 0.04 in1.0 mm
05:36 AM 43.2°F6.2°C 42.1°F5.6°C 96% 2.0 mph SSE3.2 kmh SSE 4.0 mph6.4 kmh 29.48 in998.3 mb 0.01 in0.3 mm 0.00 in0.0 mm 0.04 in1.0 mm
05:39 AM 43.2°F6.2°C 42.1°F5.6°C 96% 2.0 mph SSE3.2 kmh SSE 4.0 mph6.4 kmh 29.48 in998.3 mb 0.01 in0.3 mm 0.00 in0.0 mm 0.04 in1.0 mm
05:42 AM 43.2°F6.2°C 42.1°F5.6°C 96% 3.0 mph SSE4.8 kmh SSE 5.0 mph8.0 kmh 29.48 in998.3 mb 0.01 in0.3 mm 0.00 in0.0 mm 0.04 in1.0 mm
05:45 AM 43.2°F6.2°C 42.4°F5.8°C 97% 3.0 mph SSE4.8 kmh SSE 5.0 mph8.0 kmh 29.47 in998.0 mb 0.01 in0.3 mm 0.00 in0.0 mm 0.04 in1.0 mm
05:48 AM 43.2°F6.2°C 42.4°F5.8°C 97% 4.0 mph SSE6.4 kmh SSE 7.0 mph11.3 kmh 29.47 in998.0 mb 0.01 in0.3 mm 0.00 in0.0 mm 0.04 in1.0 mm
05:51 AM 43.3°F6.3°C 42.4°F5.8°C 97% 4.0 mph SSE6.4 kmh SSE 7.0 mph11.3 kmh 29.48 in998.3 mb 0.01 in0.3 mm 0.00 in0.0 mm 0.04 in1.0 mm
05:54 AM 43.3°F6.3°C 42.4°F5.8°C 97% 3.0 mph S4.8 kmh S 7.0 mph11.3 kmh 29.48 in998.3 mb 0.01 in0.3 mm 0.00 in0.0 mm 0.04 in1.0 mm
05:57 AM 43.3°F6.3°C 42.4°F5.8°C 97% 2.0 mph S3.2 kmh S 5.0 mph8.0 kmh 29.48 in998.3 mb 0.00 in0.0 mm 0.00 in0.0 mm 0.04 in1.0 mm
06:00 AM 43.3°F6.3°C 42.4°F5.8°C 97% 1.0 mph SSW1.6 kmh SSW 3.0 mph4.8 kmh 29.47 in998.0 mb 0.00 in0.0 mm 0.00 in0.0 mm 0.04 in1.0 mm
06:03 AM 43.3°F6.3°C 42.4°F5.8°C 97% Calm Calm 2.0 mph3.2 kmh 29.47 in998.0 mb 0.00 in0.0 mm 0.00 in0.0 mm 0.04 in1.0 mm
06:06 AM 43.3°F6.3°C 42.4°F5.8°C 97% Calm Calm 1.0 mph1.6 kmh 29.47 in998.0 mb 0.00 in0.0 mm 0.00 in0.0 mm 0.04 in1.0 mm
06:09 AM 43.3°F6.3°C 42.3°F5.7°C 96% Calm Calm 2.0 mph3.2 kmh 29.47 in998.0 mb 0.00 in0.0 mm 0.00 in0.0 mm 0.04 in1.0 mm
06:12 AM 43.3°F6.3°C 42.3°F5.7°C 96% 1.0 mph SSW1.6 kmh SSW 3.0 mph4.8 kmh 29.47 in998.0 mb 0.00 in0.0 mm 0.00 in0.0 mm 0.04 in1.0 mm
06:15 AM 43.2°F6.2°C 42.1°F5.6°C 96% 1.0 mph SSW1.6 kmh SSW 3.0 mph4.8 kmh 29.48 in998.3 mb 0.00 in0.0 mm 0.00 in0.0 mm 0.04 in1.0 mm
06:18 AM 43.3°F6.3°C 42.4°F5.8°C 97% 2.0 mph SSW3.2 kmh SSW 4.0 mph6.4 kmh 29.48 in998.3 mb 0.00 in0.0 mm 0.00 in0.0 mm 0.04 in1.0 mm
06:21 AM 43.3°F6.3°C 42.4°F5.8°C 97% 2.0 mph SSW3.2 kmh SSW 4.0 mph6.4 kmh 29.48 in998.3 mb 0.00 in0.0 mm 0.00 in0.0 mm 0.04 in1.0 mm
06:24 AM 43.3°F6.3°C 42.4°F5.8°C 97% 2.0 mph SSW3.2 kmh SSW 4.0 mph6.4 kmh 29.48 in998.3 mb 0.00 in0.0 mm 0.00 in0.0 mm 0.04 in1.0 mm
06:27 AM 43.2°F6.2°C 42.4°F5.8°C 97% 2.0 mph SSW3.2 kmh SSW 4.0 mph6.4 kmh 29.47 in998.0 mb 0.00 in0.0 mm 0.00 in0.0 mm 0.04 in1.0 mm
06:30 AM 43.2°F6.2°C 42.4°F5.8°C 97% 2.0 mph SW3.2 kmh SW 4.0 mph6.4 kmh 29.48 in998.3 mb 0.00 in0.0 mm 0.00 in0.0 mm 0.04 in1.0 mm
06:33 AM 43.2°F6.2°C 42.4°F5.8°C 97% 2.0 mph SW3.2 kmh SW 4.0 mph6.4 kmh 29.48 in998.3 mb 0.00 in0.0 mm 0.00 in0.0 mm 0.04 in1.0 mm
06:36 AM 43.2°F6.2°C 42.1°F5.6°C 96% 2.0 mph SW3.2 kmh SW 5.0 mph8.0 kmh 29.48 in998.3 mb 0.00 in0.0 mm 0.00 in0.0 mm 0.04 in1.0 mm
06:39 AM 43.2°F6.2°C 42.1°F5.6°C 96% 3.0 mph SW4.8 kmh SW 5.0 mph8.0 kmh 29.47 in998.0 mb 0.00 in0.0 mm 0.00 in0.0 mm 0.04 in1.0 mm
06:42 AM 43.2°F6.2°C 42.3°F5.7°C 97% 3.0 mph SSW4.8 kmh SSW 5.0 mph8.0 kmh 29.47 in998.0 mb 0.00 in0.0 mm 0.00 in0.0 mm 0.04 in1.0 mm
06:45 AM 43.2°F6.2°C 42.3°F5.7°C 97% 2.0 mph SSW3.2 kmh SSW 5.0 mph8.0 kmh 29.47 in998.0 mb 0.00 in0.0 mm 0.00 in0.0 mm 0.04 in1.0 mm
06:48 AM 43.2°F6.2°C 42.3°F5.7°C 97% 2.0 mph SSW3.2 kmh SSW 4.0 mph6.4 kmh 29.47 in998.0 mb 0.00 in0.0 mm 0.00 in0.0 mm 0.04 in1.0 mm
06:51 AM 43.2°F6.2°C 42.3°F5.7°C 97% 2.0 mph SW3.2 kmh SW 5.0 mph8.0 kmh 29.47 in998.0 mb 0.00 in0.0 mm 0.00 in0.0 mm 0.04 in1.0 mm
06:54 AM 43.2°F6.2°C 42.3°F5.7°C 97% 2.0 mph SW3.2 kmh SW 5.0 mph8.0 kmh 29.47 in998.0 mb 0.00 in0.0 mm 0.00 in0.0 mm 0.04 in1.0 mm
06:57 AM 43.2°F6.2°C 42.3°F5.7°C 97% 3.0 mph SW4.8 kmh SW 5.0 mph8.0 kmh 29.47 in998.0 mb 0.00 in0.0 mm 0.00 in0.0 mm 0.04 in1.0 mm
07:00 AM 43.2°F6.2°C 42.3°F5.7°C 97% 2.0 mph SW3.2 kmh SW 5.0 mph8.0 kmh 29.47 in998.0 mb 0.00 in0.0 mm 0.00 in0.0 mm 0.04 in1.0 mm
07:03 AM 43.2°F6.2°C 42.3°F5.7°C 97% 2.0 mph SSW3.2 kmh SSW 5.0 mph8.0 kmh 29.47 in998.0 mb 0.00 in0.0 mm 0.00 in0.0 mm 0.04 in1.0 mm
07:06 AM 43.2°F6.2°C 42.3°F5.7°C 97% 2.0 mph SSW3.2 kmh SSW 4.0 mph6.4 kmh 29.47 in998.0 mb 0.00 in0.0 mm 0.00 in0.0 mm 0.04 in1.0 mm
07:09 AM 43.2°F6.2°C 42.4°F5.8°C 97% 2.0 mph SSW3.2 kmh SSW 4.0 mph6.4 kmh 29.46 in997.6 mb 0.00 in0.0 mm 0.00 in0.0 mm 0.04 in1.0 mm
07:12 AM 43.2°F6.2°C 42.4°F5.8°C 97% 2.0 mph SSW3.2 kmh SSW 4.0 mph6.4 kmh 29.47 in998.0 mb 0.00 in0.0 mm 0.00 in0.0 mm 0.04 in1.0 mm
07:15 AM 43.3°F6.3°C 42.4°F5.8°C 97% 2.0 mph SW3.2 kmh SW 4.0 mph6.4 kmh 29.47 in998.0 mb 0.00 in0.0 mm 0.00 in0.0 mm 0.04 in1.0 mm
07:18 AM 43.2°F6.2°C 42.4°F5.8°C 97% 2.0 mph SW3.2 kmh SW 4.0 mph6.4 kmh 29.46 in997.6 mb 0.00 in0.0 mm 0.00 in0.0 mm 0.04 in1.0 mm
07:21 AM 43.2°F6.2°C 42.4°F5.8°C 97% 2.0 mph SSW3.2 kmh SSW 4.0 mph6.4 kmh 29.46 in997.6 mb 0.00 in0.0 mm 0.00 in0.0 mm 0.04 in1.0 mm
07:24 AM 43.3°F6.3°C 42.4°F5.8°C 97% 2.0 mph SW3.2 kmh SW 4.0 mph6.4 kmh 29.46 in997.6 mb 0.00 in0.0 mm 0.00 in0.0 mm 0.04 in1.0 mm
07:27 AM 43.3°F6.3°C 42.4°F5.8°C 97% 2.0 mph SW3.2 kmh SW 5.0 mph8.0 kmh 29.46 in997.6 mb 0.00 in0.0 mm 0.00 in0.0 mm 0.04 in1.0 mm
07:30 AM 43.3°F6.3°C 42.4°F5.8°C 97% 3.0 mph SW4.8 kmh SW 5.0 mph8.0 kmh 29.46 in997.6 mb 0.00 in0.0 mm 0.00 in0.0 mm 0.04 in1.0 mm
07:33 AM 43.2°F6.2°C 42.4°F5.8°C 97% 3.0 mph SW4.8 kmh SW 5.0 mph8.0 kmh 29.47 in998.0 mb 0.00 in0.0 mm 0.00 in0.0 mm 0.04 in1.0 mm
07:36 AM 43.2°F6.2°C 42.4°F5.8°C 97% 3.0 mph SW4.8 kmh SW 5.0 mph8.0 kmh 29.47 in998.0 mb 0.00 in0.0 mm 0.00 in0.0 mm 0.04 in1.0 mm
07:39 AM 43.2°F6.2°C 42.4°F5.8°C 97% 3.0 mph SW4.8 kmh SW 5.0 mph8.0 kmh 29.47 in998.0 mb 0.00 in0.0 mm 0.00 in0.0 mm 0.04 in1.0 mm
07:42 AM 43.2°F6.2°C 42.4°F5.8°C 97% 2.0 mph SW3.2 kmh SW 5.0 mph8.0 kmh 29.47 in998.0 mb 0.00 in0.0 mm 0.00 in0.0 mm 0.04 in1.0 mm
07:45 AM 43.2°F6.2°C 42.4°F5.8°C 97% 2.0 mph SW3.2 kmh SW 5.0 mph8.0 kmh 29.46 in997.6 mb 0.00 in0.0 mm 0.00 in0.0 mm 0.04 in1.0 mm
07:48 AM 43.2°F6.2°C 42.4°F5.8°C 97% 2.0 mph SW3.2 kmh SW 5.0 mph8.0 kmh 29.47 in998.0 mb 0.00 in0.0 mm 0.00 in0.0 mm 0.04 in1.0 mm
07:51 AM 43.2°F6.2°C 42.4°F5.8°C 97% 2.0 mph SW3.2 kmh SW 4.0 mph6.4 kmh 29.47 in998.0 mb 0.00 in0.0 mm 0.00 in0.0 mm 0.04 in1.0 mm
07:54 AM 43.2°F6.2°C 42.3°F5.7°C 97% 2.0 mph SW3.2 kmh SW 4.0 mph6.4 kmh 29.47 in998.0 mb 0.00 in0.0 mm 0.00 in0.0 mm 0.04 in1.0 mm
07:57 AM 43.2°F6.2°C 42.3°F5.7°C 97% 2.0 mph SW3.2 kmh SW 4.0 mph6.4 kmh 29.47 in998.0 mb 0.00 in0.0 mm 0.00 in0.0 mm 0.04 in1.0 mm
08:00 AM 43.2°F6.2°C 42.3°F5.7°C 97% 2.0 mph WSW3.2 kmh WSW 4.0 mph6.4 kmh 29.47 in998.0 mb 0.00 in0.0 mm 0.00 in0.0 mm 0.04 in1.0 mm
08:03 AM 43.2°F6.2°C 42.3°F5.7°C 97% 2.0 mph WSW3.2 kmh WSW 5.0 mph8.0 kmh 29.47 in998.0 mb 0.00 in0.0 mm 0.00 in0.0 mm 0.04 in1.0 mm
08:06 AM 43.0°F6.1°C 42.3°F5.7°C 97% 3.0 mph WSW4.8 kmh WSW 5.0 mph8.0 kmh 29.47 in998.0 mb 0.00 in0.0 mm 0.00 in0.0 mm 0.04 in1.0 mm
08:09 AM 43.0°F6.1°C 42.3°F5.7°C 97% 3.0 mph WSW4.8 kmh WSW 5.0 mph8.0 kmh 29.47 in998.0 mb 0.00 in0.0 mm 0.00 in0.0 mm 0.04 in1.0 mm
08:12 AM 43.0°F6.1°C 42.3°F5.7°C 97% 3.0 mph SW4.8 kmh SW 5.0 mph8.0 kmh 29.47 in998.0 mb 0.00 in0.0 mm 0.00 in0.0 mm 0.04 in1.0 mm
08:15 AM 43.0°F6.1°C 42.1°F5.6°C 97% 3.0 mph WSW4.8 kmh WSW 6.0 mph9.7 kmh 29.47 in998.0 mb 0.00 in0.0 mm 0.00 in0.0 mm 0.04 in1.0 mm
08:18 AM 43.0°F6.1°C 42.1°F5.6°C 97% 3.0 mph WSW4.8 kmh WSW 6.0 mph9.7 kmh 29.47 in998.0 mb 0.00 in0.0 mm 0.00 in0.0 mm 0.04 in1.0 mm
08:21 AM 43.0°F6.1°C 42.1°F5.6°C 97% 3.0 mph WSW4.8 kmh WSW 6.0 mph9.7 kmh 29.47 in998.0 mb 0.00 in0.0 mm 0.00 in0.0 mm 0.04 in1.0 mm
08:24 AM 42.8°F6.0°C 42.1°F5.6°C 97% 4.0 mph WSW6.4 kmh WSW 7.0 mph11.3 kmh 29.47 in998.0 mb 0.00 in0.0 mm 0.00 in0.0 mm 0.04 in1.0 mm
08:27 AM 42.8°F6.0°C 42.1°F5.6°C 97% 4.0 mph WSW6.4 kmh WSW 9.0 mph14.5 kmh 29.47 in998.0 mb 0.00 in0.0 mm 0.00 in0.0 mm 0.04 in1.0 mm
08:30 AM 43.0°F6.1°C 42.1°F5.6°C 97% 4.0 mph WSW6.4 kmh WSW 9.0 mph14.5 kmh 29.47 in998.0 mb 0.00 in0.0 mm 0.00 in0.0 mm 0.04 in1.0 mm
08:33 AM 43.0°F6.1°C 42.3°F5.7°C 97% 5.0 mph WSW8.0 kmh WSW 9.0 mph14.5 kmh 29.46 in997.6 mb 0.00 in0.0 mm 0.00 in0.0 mm 0.04 in1.0 mm
08:36 AM 43.0°F6.1°C 42.3°F5.7°C 97% 5.0 mph WSW8.0 kmh WSW 9.0 mph14.5 kmh 29.46 in997.6 mb 0.01 in0.3 mm 0.20 in5.1 mm 0.05 in1.3 mm
08:39 AM 43.0°F6.1°C 42.3°F5.7°C 97% 5.0 mph WSW8.0 kmh WSW 9.0 mph14.5 kmh 29.46 in997.6 mb 0.01 in0.3 mm 0.00 in0.0 mm 0.05 in1.3 mm
08:42 AM 43.0°F6.1°C 42.3°F5.7°C 97% 5.0 mph WSW8.0 kmh WSW 9.0 mph14.5 kmh 29.46 in997.6 mb 0.01 in0.3 mm 0.00 in0.0 mm 0.05 in1.3 mm
08:45 AM 43.0°F6.1°C 42.3°F5.7°C 97% 5.0 mph SW8.0 kmh SW 11.0 mph17.7 kmh 29.46 in997.6 mb 0.01 in0.3 mm 0.00 in0.0 mm 0.05 in1.3 mm
08:48 AM 43.0°F6.1°C 42.3°F5.7°C 97% 5.0 mph WSW8.0 kmh WSW 11.0 mph17.7 kmh 29.46 in997.6 mb 0.01 in0.3 mm 0.00 in0.0 mm 0.05 in1.3 mm
08:51 AM 43.0°F6.1°C 42.3°F5.7°C 97% 5.0 mph WSW8.0 kmh WSW 11.0 mph17.7 kmh 29.46 in997.6 mb 0.01 in0.3 mm 0.00 in0.0 mm 0.05 in1.3 mm
08:54 AM 43.0°F6.1°C 42.3°F5.7°C 97% 4.0 mph WSW6.4 kmh WSW 9.0 mph14.5 kmh 29.46 in997.6 mb 0.01 in0.3 mm 0.00 in0.0 mm 0.05 in1.3 mm
08:57 AM 43.2°F6.2°C 42.3°F5.7°C 97% 3.0 mph WSW4.8 kmh WSW 9.0 mph14.5 kmh 29.46 in997.6 mb 0.01 in0.3 mm 0.00 in0.0 mm 0.05 in1.3 mm
09:00 AM 43.2°F6.2°C 42.4°F5.8°C 97% 3.0 mph WSW4.8 kmh WSW 7.0 mph11.3 kmh 29.47 in998.0 mb 0.01 in0.3 mm 0.00 in0.0 mm 0.05 in1.3 mm
09:03 AM 43.3°F6.3°C 42.4°F5.8°C 97% 2.0 mph W3.2 kmh W 6.0 mph9.7 kmh 29.47 in998.0 mb 0.01 in0.3 mm 0.00 in0.0 mm 0.05 in1.3 mm
09:06 AM 43.3°F6.3°C 42.6°F5.9°C 97% 2.0 mph W3.2 kmh W 6.0 mph9.7 kmh 29.46 in997.6 mb 0.01 in0.3 mm 0.00 in0.0 mm 0.05 in1.3 mm
09:09 AM 43.3°F6.3°C 42.6°F5.9°C 97% 2.0 mph W3.2 kmh W 4.0 mph6.4 kmh 29.47 in998.0 mb 0.01 in0.3 mm 0.00 in0.0 mm 0.05 in1.3 mm
09:12 AM 43.5°F6.4°C 42.6°F5.9°C 97% 2.0 mph WSW3.2 kmh WSW 4.0 mph6.4 kmh 29.46 in997.6 mb 0.01 in0.3 mm 0.00 in0.0 mm 0.05 in1.3 mm
09:15 AM 43.5°F6.4°C 42.6°F5.9°C 97% 2.0 mph WSW3.2 kmh WSW 4.0 mph6.4 kmh 29.47 in998.0 mb 0.01 in0.3 mm 0.00 in0.0 mm 0.05 in1.3 mm
09:18 AM 43.5°F6.4°C 42.8°F6.0°C 97% 2.0 mph WSW3.2 kmh WSW 5.0 mph8.0 kmh 29.46 in997.6 mb 0.01 in0.3 mm 0.00 in0.0 mm 0.05 in1.3 mm
09:21 AM 43.5°F6.4°C 42.8°F6.0°C 97% 2.0 mph WSW3.2 kmh WSW 7.0 mph11.3 kmh 29.46 in997.6 mb 0.01 in0.3 mm 0.00 in0.0 mm 0.05 in1.3 mm
09:24 AM 43.5°F6.4°C 42.8°F6.0°C 97% 3.0 mph WSW4.8 kmh WSW 7.0 mph11.3 kmh 29.46 in997.6 mb 0.01 in0.3 mm 0.00 in0.0 mm 0.05 in1.3 mm
09:27 AM 43.5°F6.4°C 42.8°F6.0°C 97% 3.0 mph SW4.8 kmh SW 7.0 mph11.3 kmh 29.46 in997.6 mb 0.01 in0.3 mm 0.00 in0.0 mm 0.05 in1.3 mm
09:30 AM 43.5°F6.4°C 42.8°F6.0°C 97% 3.0 mph SW4.8 kmh SW 6.0 mph9.7 kmh 29.47 in998.0 mb 0.01 in0.3 mm 0.00 in0.0 mm 0.05 in1.3 mm
09:33 AM 43.5°F6.4°C 42.8°F6.0°C 97% 3.0 mph SW4.8 kmh SW 5.0 mph8.0 kmh 29.47 in998.0 mb 0.01 in0.3 mm 0.00 in0.0 mm 0.05 in1.3 mm
09:36 AM 43.7°F6.5°C 43.0°F6.1°C 97% 2.0 mph SW3.2 kmh SW 5.0 mph8.0 kmh 29.47 in998.0 mb 0.00 in0.0 mm 0.00 in0.0 mm 0.05 in1.3 mm
09:39 AM 43.9°F6.6°C 43.0°F6.1°C 97% 2.0 mph WSW3.2 kmh WSW 7.0 mph11.3 kmh 29.47 in998.0 mb 0.00 in0.0 mm 0.00 in0.0 mm 0.05 in1.3 mm
09:42 AM 43.9°F6.6°C 43.2°F6.2°C 97% 2.0 mph WSW3.2 kmh WSW 7.0 mph11.3 kmh 29.47 in998.0 mb 0.00 in0.0 mm 0.00 in0.0 mm 0.05 in1.3 mm
09:45 AM 44.1°F6.7°C 43.2°F6.2°C 97% 2.0 mph WSW3.2 kmh WSW 7.0 mph11.3 kmh 29.47 in998.0 mb 0.00 in0.0 mm 0.00 in0.0 mm 0.05 in1.3 mm
09:48 AM 44.1°F6.7°C 43.3°F6.3°C 97% 2.0 mph WSW3.2 kmh WSW 4.0 mph6.4 kmh 29.47 in998.0 mb 0.00 in0.0 mm 0.00 in0.0 mm 0.05 in1.3 mm
09:51 AM 44.2°F6.8°C 43.3°F6.3°C 97% 2.0 mph WSW3.2 kmh WSW 4.0 mph6.4 kmh 29.46 in997.6 mb 0.00 in0.0 mm 0.00 in0.0 mm 0.05 in1.3 mm
09:54 AM 44.2°F6.8°C 43.3°F6.3°C 97% 2.0 mph WSW3.2 kmh WSW 5.0 mph8.0 kmh 29.46 in997.6 mb 0.00 in0.0 mm 0.00 in0.0 mm 0.05 in1.3 mm
09:57 AM 44.2°F6.8°C 43.5°F6.4°C 97% 2.0 mph SW3.2 kmh SW 5.0 mph8.0 kmh 29.46 in997.6 mb 0.00 in0.0 mm 0.00 in0.0 mm 0.05 in1.3 mm
10:00 AM 44.2°F6.8°C 43.5°F6.4°C 97% 2.0 mph SSW3.2 kmh SSW 5.0 mph8.0 kmh 29.46 in997.6 mb 0.00 in0.0 mm 0.00 in0.0 mm 0.05 in1.3 mm
10:03 AM 44.2°F6.8°C 43.5°F6.4°C 97% 2.0 mph SSW3.2 kmh SSW 5.0 mph8.0 kmh 29.46 in997.6 mb 0.00 in0.0 mm 0.00 in0.0 mm 0.05 in1.3 mm
10:06 AM 44.4°F6.9°C 43.7°F6.5°C 97% 2.0 mph SW3.2 kmh SW 5.0 mph8.0 kmh 29.46 in997.6 mb 0.00 in0.0 mm 0.00 in0.0 mm 0.05 in1.3 mm
10:09 AM 44.8°F7.1°C 44.1°F6.7°C 97% 2.0 mph WSW3.2 kmh WSW 5.0 mph8.0 kmh 29.46 in997.6 mb 0.00 in0.0 mm 0.00 in0.0 mm 0.05 in1.3 mm
10:12 AM 45.0°F7.2°C 44.2°F6.8°C 97% 2.0 mph WSW3.2 kmh WSW 5.0 mph8.0 kmh 29.46 in997.6 mb 0.00 in0.0 mm 0.00 in0.0 mm 0.05 in1.3 mm
10:15 AM 45.1°F7.3°C 44.6°F7.0°C 98% 1.0 mph WSW1.6 kmh WSW 4.0 mph6.4 kmh 29.46 in997.6 mb 0.00 in0.0 mm 0.00 in0.0 mm 0.05 in1.3 mm
10:18 AM 45.3°F7.4°C 44.8°F7.1°C 98% 1.0 mph WSW1.6 kmh WSW 3.0 mph4.8 kmh 29.46 in997.6 mb 0.00 in0.0 mm 0.00 in0.0 mm 0.05 in1.3 mm
10:21 AM 45.5°F7.5°C 45.0°F7.2°C 98% 1.0 mph SW1.6 kmh SW 3.0 mph4.8 kmh 29.46 in997.6 mb 0.00 in0.0 mm 0.00 in0.0 mm 0.05 in1.3 mm
10:24 AM 45.5°F7.5°C 45.0°F7.2°C 98% 1.0 mph SSW1.6 kmh SSW 3.0 mph4.8 kmh 29.46 in997.6 mb 0.00 in0.0 mm 0.00 in0.0 mm 0.05 in1.3 mm
10:27 AM 45.7°F7.6°C 45.1°F7.3°C 98% 1.0 mph SSW1.6 kmh SSW 4.0 mph6.4 kmh 29.46 in997.6 mb 0.00 in0.0 mm 0.00 in0.0 mm 0.05 in1.3 mm
10:30 AM 45.7°F7.6°C 45.1°F7.3°C 98% 1.0 mph SW1.6 kmh SW 4.0 mph6.4 kmh 29.46 in997.6 mb 0.00 in0.0 mm 0.00 in0.0 mm 0.05 in1.3 mm
10:33 AM 46.0°F7.8°C 45.5°F7.5°C 98% 1.0 mph SW1.6 kmh SW 7.0 mph11.3 kmh 29.47 in998.0 mb 0.00 in0.0 mm 0.00 in0.0 mm 0.05 in1.3 mm
10:36 AM 46.8°F8.2°C 46.2°F7.9°C 98% 3.0 mph W4.8 kmh W 11.0 mph17.7 kmh 29.47 in998.0 mb 0.00 in0.0 mm 0.00 in0.0 mm 0.05 in1.3 mm
10:39 AM 47.7°F8.7°C 47.1°F8.4°C 98% 4.0 mph WNW6.4 kmh WNW 11.0 mph17.7 kmh 29.47 in998.0 mb 0.00 in0.0 mm 0.00 in0.0 mm 0.05 in1.3 mm
10:42 AM 48.4°F9.1°C 47.8°F8.8°C 98% 6.0 mph WNW9.7 kmh WNW 14.0 mph22.5 kmh 29.47 in998.0 mb 0.00 in0.0 mm 0.00 in0.0 mm 0.05 in1.3 mm
10:45 AM 48.9°F9.4°C 48.4°F9.1°C 98% 6.0 mph WNW9.7 kmh WNW 18.0 mph29.0 kmh 29.47 in998.0 mb 0.01 in0.3 mm 0.20 in5.1 mm 0.06 in1.5 mm
10:48 AM 49.3°F9.6°C 48.7°F9.3°C 98% 7.0 mph WNW11.3 kmh WNW 18.0 mph29.0 kmh 29.47 in998.0 mb 0.01 in0.3 mm 0.00 in0.0 mm 0.06 in1.5 mm
10:51 AM 49.5°F9.7°C 48.9°F9.4°C 98% 6.0 mph WNW9.7 kmh WNW 18.0 mph29.0 kmh 29.48 in998.3 mb 0.01 in0.3 mm 0.00 in0.0 mm 0.06 in1.5 mm
10:54 AM 49.6°F9.8°C 49.1°F9.5°C 98% 7.0 mph WNW11.3 kmh WNW 22.0 mph35.4 kmh 29.47 in998.0 mb 0.01 in0.3 mm 0.00 in0.0 mm 0.06 in1.5 mm
10:57 AM 49.6°F9.8°C 49.1°F9.5°C 98% 7.0 mph WNW11.3 kmh WNW 22.0 mph35.4 kmh 29.48 in998.3 mb 0.01 in0.3 mm 0.00 in0.0 mm 0.06 in1.5 mm
11:00 AM 49.8°F9.9°C 49.3°F9.6°C 98% 6.0 mph WNW9.7 kmh WNW 22.0 mph35.4 kmh 29.48 in998.3 mb 0.02 in0.5 mm 0.01 in0.3 mm 0.06 in1.5 mm
11:03 AM 49.8°F9.9°C 49.3°F9.6°C 98% 6.0 mph WNW9.7 kmh WNW 11.0 mph17.7 kmh 29.48 in998.3 mb 0.02 in0.5 mm 0.00 in0.0 mm 0.06 in1.5 mm
11:06 AM 50.0°F10.0°C 49.5°F9.7°C 98% 6.0 mph WNW9.7 kmh WNW 11.0 mph17.7 kmh 29.48 in998.3 mb 0.02 in0.5 mm 0.00 in0.0 mm 0.06 in1.5 mm
11:09 AM 50.2°F10.1°C 49.6°F9.8°C 98% 5.0 mph WNW8.0 kmh WNW 11.0 mph17.7 kmh 29.48 in998.3 mb 0.02 in0.5 mm 0.00 in0.0 mm 0.06 in1.5 mm
11:12 AM 50.2°F10.1°C 49.6°F9.8°C 98% 4.0 mph WNW6.4 kmh WNW 11.0 mph17.7 kmh 29.48 in998.3 mb 0.02 in0.5 mm 0.00 in0.0 mm 0.06 in1.5 mm
11:15 AM 50.2°F10.1°C 49.6°F9.8°C 98% 3.0 mph NW4.8 kmh NW 10.0 mph16.1 kmh 29.49 in998.6 mb 0.02 in0.5 mm 0.00 in0.0 mm 0.06 in1.5 mm
11:18 AM 50.2°F10.1°C 49.6°F9.8°C 98% 4.0 mph NW6.4 kmh NW 10.0 mph16.1 kmh 29.49 in998.6 mb 0.03 in0.8 mm 0.20 in5.1 mm 0.08 in2.0 mm
11:21 AM 50.2°F10.1°C 49.3°F9.6°C 97% 5.0 mph NW8.0 kmh NW 12.0 mph19.3 kmh 29.49 in998.6 mb 0.04 in1.0 mm 0.20 in5.1 mm 0.09 in2.3 mm
11:24 AM 50.0°F10.0°C 49.1°F9.5°C 97% 7.0 mph NW11.3 kmh NW 24.0 mph38.6 kmh 29.48 in998.3 mb 0.04 in1.0 mm 0.00 in0.0 mm 0.09 in2.3 mm
11:27 AM 49.8°F9.9°C 49.1°F9.5°C 97% 8.0 mph NW12.9 kmh NW 24.0 mph38.6 kmh 29.49 in998.6 mb 0.04 in1.0 mm 0.00 in0.0 mm 0.09 in2.3 mm
11:30 AM 49.8°F9.9°C 48.9°F9.4°C 97% 10.0 mph NW16.1 kmh NW 24.0 mph38.6 kmh 29.49 in998.6 mb 0.05 in1.3 mm 0.20 in5.1 mm 0.09 in2.3 mm
11:33 AM 49.5°F9.7°C 48.7°F9.3°C 97% 11.0 mph NW17.7 kmh NW 24.0 mph38.6 kmh 29.49 in998.6 mb 0.05 in1.3 mm 0.00 in0.0 mm 0.09 in2.3 mm
11:36 AM 49.5°F9.7°C 48.6°F9.2°C 97% 10.0 mph NW16.1 kmh NW 21.0 mph33.8 kmh 29.50 in999.0 mb 0.05 in1.3 mm 0.00 in0.0 mm 0.09 in2.3 mm
11:39 AM 49.5°F9.7°C 48.6°F9.2°C 97% 9.0 mph NW14.5 kmh NW 30.0 mph48.3 kmh 29.49 in998.6 mb 0.05 in1.3 mm 0.00 in0.0 mm 0.09 in2.3 mm
11:42 AM 49.1°F9.5°C 48.2°F9.0°C 97% 9.0 mph NW14.5 kmh NW 30.0 mph48.3 kmh 29.49 in998.6 mb 0.05 in1.3 mm 0.00 in0.0 mm 0.09 in2.3 mm
11:45 AM 48.7°F9.3°C 47.8°F8.8°C 97% 10.0 mph NW16.1 kmh NW 30.0 mph48.3 kmh 29.49 in998.6 mb 0.04 in1.0 mm 0.00 in0.0 mm 0.09 in2.3 mm
11:48 AM 48.4°F9.1°C 47.3°F8.5°C 96% 10.0 mph NW16.1 kmh NW 26.0 mph41.8 kmh 29.49 in998.6 mb 0.04 in1.0 mm 0.00 in0.0 mm 0.09 in2.3 mm
11:51 AM 48.2°F9.0°C 47.1°F8.4°C 96% 10.0 mph NW16.1 kmh NW 20.0 mph32.2 kmh 29.49 in998.6 mb 0.04 in1.0 mm 0.00 in0.0 mm 0.09 in2.3 mm
11:54 AM 48.2°F9.0°C 47.1°F8.4°C 96% 9.0 mph NW14.5 kmh NW 19.0 mph30.6 kmh 29.49 in998.6 mb 0.04 in1.0 mm 0.00 in0.0 mm 0.09 in2.3 mm
11:57 AM 48.4°F9.1°C 47.3°F8.5°C 96% 9.0 mph NW14.5 kmh NW 26.0 mph41.8 kmh 29.49 in998.6 mb 0.04 in1.0 mm 0.00 in0.0 mm 0.09 in2.3 mm
12:00 PM 48.6°F9.2°C 47.5°F8.6°C 96% 9.0 mph NW14.5 kmh NW 26.0 mph41.8 kmh 29.49 in998.6 mb 0.03 in0.8 mm 0.00 in0.0 mm 0.09 in2.3 mm
12:03 PM 48.7°F9.3°C 47.3°F8.5°C 95% 10.0 mph NW16.1 kmh NW 26.0 mph41.8 kmh 29.49 in998.6 mb 0.03 in0.8 mm 0.00 in0.0 mm 0.09 in2.3 mm
12:06 PM 48.9°F9.4°C 47.3°F8.5°C 94% 10.0 mph NW16.1 kmh NW 22.0 mph35.4 kmh 29.49 in998.6 mb 0.03 in0.8 mm 0.00 in0.0 mm 0.09 in2.3 mm
12:09 PM 49.1°F9.5°C 47.5°F8.6°C 94% 11.0 mph NW17.7 kmh NW 22.0 mph35.4 kmh 29.49 in998.6 mb 0.03 in0.8 mm 0.00 in0.0 mm 0.09 in2.3 mm
12:12 PM 49.3°F9.6°C 47.3°F8.5°C 93% 10.0 mph NW16.1 kmh NW 21.0 mph33.8 kmh 29.50 in999.0 mb 0.03 in0.8 mm 0.00 in0.0 mm 0.09 in2.3 mm
12:15 PM 49.3°F9.6°C 47.1°F8.4°C 92% 11.0 mph NW17.7 kmh NW 21.0 mph33.8 kmh 29.50 in999.0 mb 0.02 in0.5 mm 0.00 in0.0 mm 0.09 in2.3 mm
12:18 PM 49.5°F9.7°C 47.3°F8.5°C 92% 10.0 mph NW16.1 kmh NW 19.0 mph30.6 kmh 29.50 in999.0 mb 0.02 in0.5 mm 0.00 in0.0 mm 0.09 in2.3 mm
12:21 PM 49.6°F9.8°C 46.6°F8.1°C 89% 10.0 mph WNW16.1 kmh WNW 25.0 mph40.2 kmh 29.51 in999.3 mb 0.01 in0.3 mm 0.00 in0.0 mm 0.09 in2.3 mm
12:24 PM 49.8°F9.9°C 46.2°F7.9°C 87% 11.0 mph WNW17.7 kmh WNW 25.0 mph40.2 kmh 29.51 in999.3 mb 0.01 in0.3 mm 0.00 in0.0 mm 0.09 in2.3 mm
12:27 PM 50.2°F10.1°C 46.0°F7.8°C 86% 11.0 mph WNW17.7 kmh WNW 25.0 mph40.2 kmh 29.52 in999.7 mb 0.01 in0.3 mm 0.00 in0.0 mm 0.09 in2.3 mm
12:30 PM 50.4°F10.2°C 45.7°F7.6°C 84% 11.0 mph WNW17.7 kmh WNW 25.0 mph40.2 kmh 29.52 in999.7 mb 0.00 in0.0 mm 0.00 in0.0 mm 0.09 in2.3 mm
12:33 PM 50.5°F10.3°C 45.5°F7.5°C 83% 11.0 mph WNW17.7 kmh WNW 25.0 mph40.2 kmh 29.52 in999.7 mb 0.00 in0.0 mm 0.00 in0.0 mm 0.09 in2.3 mm
12:36 PM 50.5°F10.3°C 45.3°F7.4°C 82% 12.0 mph WNW19.3 kmh WNW 25.0 mph40.2 kmh 29.52 in999.7 mb 0.00 in0.0 mm 0.00 in0.0 mm 0.09 in2.3 mm
12:39 PM 50.7°F10.4°C 45.1°F7.3°C 81% 11.0 mph WNW17.7 kmh WNW 25.0 mph40.2 kmh 29.53 in1000.0 mb 0.00 in0.0 mm 0.00 in0.0 mm 0.09 in2.3 mm
12:42 PM 50.9°F10.5°C 45.0°F7.2°C 80% 11.0 mph WNW17.7 kmh WNW 25.0 mph40.2 kmh 29.52 in999.7 mb 0.00 in0.0 mm 0.00 in0.0 mm 0.09 in2.3 mm
12:45 PM 51.1°F10.6°C 44.8°F7.1°C 79% 11.0 mph WNW17.7 kmh WNW 25.0 mph40.2 kmh 29.53 in1000.0 mb 0.00 in0.0 mm 0.00 in0.0 mm 0.09 in2.3 mm
12:48 PM 51.3°F10.7°C 44.6°F7.0°C 78% 11.0 mph WNW17.7 kmh WNW 25.0 mph40.2 kmh 29.52 in999.7 mb 0.00 in0.0 mm 0.00 in0.0 mm 0.09 in2.3 mm
12:51 PM 51.4°F10.8°C 44.8°F7.1°C 78% 10.0 mph WNW16.1 kmh WNW 24.0 mph38.6 kmh 29.53 in1000.0 mb 0.00 in0.0 mm 0.00 in0.0 mm 0.09 in2.3 mm
12:54 PM 51.6°F10.9°C 44.8°F7.1°C 77% 10.0 mph WNW16.1 kmh WNW 23.0 mph37.0 kmh 29.52 in999.7 mb 0.00 in0.0 mm 0.00 in0.0 mm 0.09 in2.3 mm
12:57 PM 51.6°F10.9°C 44.4°F6.9°C 76% 10.0 mph WNW16.1 kmh WNW 26.0 mph41.8 kmh 29.53 in1000.0 mb 0.00 in0.0 mm 0.00 in0.0 mm 0.09 in2.3 mm
01:00 PM 51.6°F10.9°C 44.8°F7.1°C 77% 10.0 mph WNW16.1 kmh WNW 26.0 mph41.8 kmh 29.53 in1000.0 mb 0.00 in0.0 mm 0.00 in0.0 mm 0.09 in2.3 mm
01:03 PM 51.6°F10.9°C 44.2°F6.8°C 76% 10.0 mph WNW16.1 kmh WNW 26.0 mph41.8 kmh 29.53 in1000.0 mb 0.00 in0.0 mm 0.00 in0.0 mm 0.09 in2.3 mm
01:06 PM 51.4°F10.8°C 44.4°F6.9°C 77% 9.0 mph WNW14.5 kmh WNW 18.0 mph29.0 kmh 29.53 in1000.0 mb 0.00 in0.0 mm 0.00 in0.0 mm 0.09 in2.3 mm
01:09 PM 51.3°F10.7°C 44.2°F6.8°C 77% 9.0 mph WNW14.5 kmh WNW 18.0 mph29.0 kmh 29.53 in1000.0 mb 0.00 in0.0 mm 0.00 in0.0 mm 0.09 in2.3 mm
01:12 PM 51.1°F10.6°C 44.4°F6.9°C 78% 9.0 mph NW14.5 kmh NW 19.0 mph30.6 kmh 29.53 in1000.0 mb 0.00 in0.0 mm 0.00 in0.0 mm 0.09 in2.3 mm
01:15 PM 50.9°F10.5°C 44.2°F6.8°C 78% 9.0 mph NW14.5 kmh NW 19.0 mph30.6 kmh 29.53 in1000.0 mb 0.00 in0.0 mm 0.00 in0.0 mm 0.09 in2.3 mm
01:18 PM 50.7°F10.4°C 44.6°F7.0°C 79% 10.0 mph NW16.1 kmh NW 20.0 mph32.2 kmh 29.54 in1000.3 mb 0.00 in0.0 mm 0.00 in0.0 mm 0.09 in2.3 mm
01:21 PM 50.7°F10.4°C 44.6°F7.0°C 79% 10.0 mph NW16.1 kmh NW 24.0 mph38.6 kmh 29.54 in1000.3 mb 0.00 in0.0 mm 0.00 in0.0 mm 0.09 in2.3 mm
01:24 PM 50.7°F10.4°C 44.8°F7.1°C 80% 9.0 mph NW14.5 kmh NW 24.0 mph38.6 kmh 29.54 in1000.3 mb 0.00 in0.0 mm 0.00 in0.0 mm 0.09 in2.3 mm
01:27 PM 50.7°F10.4°C 44.8°F7.1°C 80% 9.0 mph NW14.5 kmh NW 24.0 mph38.6 kmh 29.54 in1000.3 mb 0.00 in0.0 mm 0.00 in0.0 mm 0.09 in2.3 mm
01:30 PM 50.7°F10.4°C 44.8°F7.1°C 80% 9.0 mph NW14.5 kmh NW 24.0 mph38.6 kmh 29.54 in1000.3 mb 0.00 in0.0 mm 0.00 in0.0 mm 0.09 in2.3 mm
01:33 PM 50.7°F10.4°C 45.1°F7.3°C 81% 8.0 mph NW12.9 kmh NW 21.0 mph33.8 kmh 29.55 in1000.7 mb 0.00 in0.0 mm 0.00 in0.0 mm 0.09 in2.3 mm
01:36 PM 50.5°F10.3°C 44.6°F7.0°C 80% 9.0 mph NW14.5 kmh NW 22.0 mph35.4 kmh 29.55 in1000.7 mb 0.00 in0.0 mm 0.00 in0.0 mm 0.09 in2.3 mm
01:39 PM 50.5°F10.3°C 45.0°F7.2°C 81% 8.0 mph NW12.9 kmh NW 22.0 mph35.4 kmh 29.55 in1000.7 mb 0.00 in0.0 mm 0.00 in0.0 mm 0.09 in2.3 mm
01:42 PM 50.7°F10.4°C 45.1°F7.3°C 81% 9.0 mph NW14.5 kmh NW 22.0 mph35.4 kmh 29.55 in1000.7 mb 0.00 in0.0 mm 0.00 in0.0 mm 0.09 in2.3 mm
01:45 PM 50.7°F10.4°C 44.8°F7.1°C 80% 9.0 mph NW14.5 kmh NW 22.0 mph35.4 kmh 29.55 in1000.7 mb 0.00 in0.0 mm 0.00 in0.0 mm 0.09 in2.3 mm
01:48 PM 50.9°F10.5°C 44.6°F7.0°C 79% 9.0 mph NW14.5 kmh NW 19.0 mph30.6 kmh 29.55 in1000.7 mb 0.00 in0.0 mm 0.00 in0.0 mm 0.09 in2.3 mm
01:51 PM 50.7°F10.4°C 44.2°F6.8°C 78% 9.0 mph NW14.5 kmh NW 18.0 mph29.0 kmh 29.56 in1001.0 mb 0.00 in0.0 mm 0.00 in0.0 mm 0.09 in2.3 mm
01:54 PM 50.7°F10.4°C 44.1°F6.7°C 78% 9.0 mph NW14.5 kmh NW 18.0 mph29.0 kmh 29.56 in1001.0 mb 0.00 in0.0 mm 0.00 in0.0 mm 0.09 in2.3 mm
01:57 PM 50.5°F10.3°C 43.7°F6.5°C 77% 8.0 mph NW12.9 kmh NW 17.0 mph27.4 kmh 29.56 in1001.0 mb 0.00 in0.0 mm 0.00 in0.0 mm 0.09 in2.3 mm
02:00 PM 50.5°F10.3°C 43.9°F6.6°C 78% 8.0 mph NW12.9 kmh NW 17.0 mph27.4 kmh 29.56 in1001.0 mb 0.00 in0.0 mm 0.00 in0.0 mm 0.09 in2.3 mm
02:03 PM 50.4°F10.2°C 43.5°F6.4°C 77% 7.0 mph NW11.3 kmh NW 15.0 mph24.1 kmh 29.56 in1001.0 mb 0.00 in0.0 mm 0.00 in0.0 mm 0.09 in2.3 mm
02:06 PM 50.4°F10.2°C 43.5°F6.4°C 77% 8.0 mph NW12.9 kmh NW 22.0 mph35.4 kmh 29.56 in1001.0 mb 0.00 in0.0 mm 0.00 in0.0 mm 0.09 in2.3 mm
02:09 PM 50.4°F10.2°C 43.2°F6.2°C 76% 10.0 mph NW16.1 kmh NW 26.0 mph41.8 kmh 29.56 in1001.0 mb 0.00 in0.0 mm 0.00 in0.0 mm 0.09 in2.3 mm
02:12 PM 50.4°F10.2°C 43.2°F6.2°C 76% 11.0 mph NW17.7 kmh NW 26.0 mph41.8 kmh 29.57 in1001.4 mb 0.00 in0.0 mm 0.00 in0.0 mm 0.09 in2.3 mm
02:15 PM 50.4°F10.2°C 43.0°F6.1°C 76% 11.0 mph NW17.7 kmh NW 26.0 mph41.8 kmh 29.57 in1001.4 mb 0.00 in0.0 mm 0.00 in0.0 mm 0.09 in2.3 mm
02:18 PM 50.2°F10.1°C 43.0°F6.1°C 76% 11.0 mph NW17.7 kmh NW 26.0 mph41.8 kmh 29.57 in1001.4 mb 0.00 in0.0 mm 0.00 in0.0 mm 0.09 in2.3 mm
02:21 PM 50.4°F10.2°C 42.6°F5.9°C 75% 11.0 mph NW17.7 kmh NW 26.0 mph41.8 kmh 29.57 in1001.4 mb 0.00 in0.0 mm 0.00 in0.0 mm 0.09 in2.3 mm
02:24 PM 50.4°F10.2°C 42.8°F6.0°C 75% 11.0 mph NW17.7 kmh NW 26.0 mph41.8 kmh 29.58 in1001.7 mb 0.00 in0.0 mm 0.00 in0.0 mm 0.09 in2.3 mm
02:27 PM 50.4°F10.2°C 42.3°F5.7°C 74% 10.0 mph NW16.1 kmh NW 25.0 mph40.2 kmh 29.58 in1001.7 mb 0.00 in0.0 mm 0.00 in0.0 mm 0.09 in2.3 mm
02:30 PM 50.2°F10.1°C 42.6°F5.9°C 75% 10.0 mph NW16.1 kmh NW 25.0 mph40.2 kmh 29.58 in1001.7 mb 0.00 in0.0 mm 0.00 in0.0 mm 0.09 in2.3 mm
02:33 PM 50.0°F10.0°C 42.4°F5.8°C 75% 10.0 mph NW16.1 kmh NW 25.0 mph40.2 kmh 29.58 in1001.7 mb 0.00 in0.0 mm 0.00 in0.0 mm 0.09 in2.3 mm
02:36 PM 49.8°F9.9°C 42.3°F5.7°C 75% 10.0 mph NW16.1 kmh NW 23.0 mph37.0 kmh 29.58 in1001.7 mb 0.00 in0.0 mm 0.00 in0.0 mm 0.09 in2.3 mm
02:39 PM 49.6°F9.8°C 42.3°F5.7°C 76% 10.0 mph NW16.1 kmh NW 23.0 mph37.0 kmh 29.58 in1001.7 mb 0.00 in0.0 mm 0.00 in0.0 mm 0.09 in2.3 mm
02:42 PM 49.6°F9.8°C 42.6°F5.9°C 77% 9.0 mph NW14.5 kmh NW 21.0 mph33.8 kmh 29.58 in1001.7 mb 0.00 in0.0 mm 0.00 in0.0 mm 0.09 in2.3 mm
02:45 PM 49.6°F9.8°C 42.6°F5.9°C 77% 8.0 mph NW12.9 kmh NW 15.0 mph24.1 kmh 29.58 in1001.7 mb 0.00 in0.0 mm 0.00 in0.0 mm 0.09 in2.3 mm
02:48 PM 49.6°F9.8°C 43.0°F6.1°C 78% 8.0 mph NW12.9 kmh NW 15.0 mph24.1 kmh 29.58 in1001.7 mb 0.00 in0.0 mm 0.00 in0.0 mm 0.09 in2.3 mm
02:51 PM 49.6°F9.8°C 42.8°F6.0°C 77% 8.0 mph NW12.9 kmh NW 15.0 mph24.1 kmh 29.59 in1002.0 mb 0.00 in0.0 mm 0.00 in0.0 mm 0.09 in2.3 mm
02:54 PM 49.8°F9.9°C 43.0°F6.1°C 77% 9.0 mph NW14.5 kmh NW 14.0 mph22.5 kmh 29.59 in1002.0 mb 0.00 in0.0 mm 0.00 in0.0 mm 0.09 in2.3 mm
02:57 PM 50.0°F10.0°C 42.8°F6.0°C 76% 10.0 mph NW16.1 kmh NW 29.0 mph46.7 kmh 29.59 in1002.0 mb 0.00 in0.0 mm 0.00 in0.0 mm 0.09 in2.3 mm
03:00 PM 50.0°F10.0°C 42.8°F6.0°C 76% 10.0 mph NW16.1 kmh NW 29.0 mph46.7 kmh 29.59 in1002.0 mb 0.00 in0.0 mm 0.00 in0.0 mm 0.09 in2.3 mm
03:03 PM 49.8°F9.9°C 42.6°F5.9°C 76% 10.0 mph NW16.1 kmh NW 29.0 mph46.7 kmh 29.59 in1002.0 mb 0.00 in0.0 mm 0.00 in0.0 mm 0.09 in2.3 mm
03:06 PM 49.6°F9.8°C 42.3°F5.7°C 76% 8.0 mph NW12.9 kmh NW 23.0 mph37.0 kmh 29.59 in1002.0 mb 0.00 in0.0 mm 0.00 in0.0 mm 0.09 in2.3 mm
03:09 PM 49.5°F9.7°C 42.3°F5.7°C 76% 8.0 mph NW12.9 kmh NW 14.0 mph22.5 kmh 29.60 in1002.4 mb 0.00 in0.0 mm 0.00 in0.0 mm 0.09 in2.3 mm
03:12 PM 49.3°F9.6°C 41.7°F5.4°C 75% 8.0 mph NW12.9 kmh NW 18.0 mph29.0 kmh 29.60 in1002.4 mb 0.00 in0.0 mm 0.00 in0.0 mm 0.09 in2.3 mm
03:15 PM 49.3°F9.6°C 41.5°F5.3°C 75% 9.0 mph NW14.5 kmh NW 18.0 mph29.0 kmh 29.59 in1002.0 mb 0.00 in0.0 mm 0.00 in0.0 mm 0.09 in2.3 mm
03:18 PM 49.1°F9.5°C 41.2°F5.1°C 74% 10.0 mph NW16.1 kmh NW 19.0 mph30.6 kmh 29.60 in1002.4 mb 0.00 in0.0 mm 0.00 in0.0 mm 0.09 in2.3 mm
03:21 PM 49.1°F9.5°C 41.2°F5.1°C 74% 11.0 mph NW17.7 kmh NW 22.0 mph35.4 kmh 29.60 in1002.4 mb 0.00 in0.0 mm 0.00 in0.0 mm 0.09 in2.3 mm
03:24 PM 48.9°F9.4°C 41.4°F5.2°C 75% 11.0 mph NW17.7 kmh NW 22.0 mph35.4 kmh 29.61 in1002.7 mb 0.00 in0.0 mm 0.00 in0.0 mm 0.09 in2.3 mm
03:27 PM 48.9°F9.4°C 41.4°F5.2°C 75% 10.0 mph NW16.1 kmh NW 22.0 mph35.4 kmh 29.61 in1002.7 mb 0.00 in0.0 mm 0.00 in0.0 mm 0.09 in2.3 mm
03:30 PM 48.7°F9.3°C 41.2°F5.1°C 75% 10.0 mph NW16.1 kmh NW 18.0 mph29.0 kmh 29.61 in1002.7 mb 0.00 in0.0 mm 0.00 in0.0 mm 0.09 in2.3 mm
03:33 PM 48.7°F9.3°C 41.2°F5.1°C 75% 10.0 mph NW16.1 kmh NW 19.0 mph30.6 kmh 29.61 in1002.7 mb 0.00 in0.0 mm 0.00 in0.0 mm 0.09 in2.3 mm
03:36 PM 48.6°F9.2°C 41.4°F5.2°C 76% 9.0 mph NW14.5 kmh NW 19.0 mph30.6 kmh 29.61 in1002.7 mb 0.00 in0.0 mm 0.00 in0.0 mm 0.09 in2.3 mm
03:39 PM 48.6°F9.2°C 41.0°F5.0°C 75% 9.0 mph NW14.5 kmh NW 19.0 mph30.6 kmh 29.62 in1003.0 mb 0.00 in0.0 mm 0.00 in0.0 mm 0.09 in2.3 mm
03:42 PM 48.6°F9.2°C 41.4°F5.2°C 76% 9.0 mph NW14.5 kmh NW 19.0 mph30.6 kmh 29.62 in1003.0 mb 0.00 in0.0 mm 0.00 in0.0 mm 0.09 in2.3 mm
03:45 PM 48.6°F9.2°C 41.4°F5.2°C 76% 10.0 mph NW16.1 kmh NW 19.0 mph30.6 kmh 29.62 in1003.0 mb 0.00 in0.0 mm 0.00 in0.0 mm 0.09 in2.3 mm
03:48 PM 48.7°F9.3°C 41.2°F5.1°C 75% 10.0 mph NW16.1 kmh NW 19.0 mph30.6 kmh 29.63 in1003.4 mb 0.00 in0.0 mm 0.00 in0.0 mm 0.09 in2.3 mm
03:51 PM 48.7°F9.3°C 41.5°F5.3°C 76% 9.0 mph NW14.5 kmh NW 20.0 mph32.2 kmh 29.63 in1003.4 mb 0.00 in0.0 mm 0.00 in0.0 mm 0.09 in2.3 mm
03:54 PM 48.7°F9.3°C 41.2°F5.1°C 75% 8.0 mph NW12.9 kmh NW 21.0 mph33.8 kmh 29.64 in1003.7 mb 0.00 in0.0 mm 0.00 in0.0 mm 0.09 in2.3 mm
03:57 PM 48.6°F9.2°C 41.4°F5.2°C 76% 8.0 mph NW12.9 kmh NW 21.0 mph33.8 kmh 29.64 in1003.7 mb 0.00 in0.0 mm 0.00 in0.0 mm 0.09 in2.3 mm
04:00 PM 48.6°F9.2°C 41.4°F5.2°C 76% 8.0 mph NW12.9 kmh NW 21.0 mph33.8 kmh 29.64 in1003.7 mb 0.00 in0.0 mm 0.00 in0.0 mm 0.09 in2.3 mm
04:03 PM 48.6°F9.2°C 41.4°F5.2°C 76% 8.0 mph NW12.9 kmh NW 14.0 mph22.5 kmh 29.65 in1004.1 mb 0.00 in0.0 mm 0.00 in0.0 mm 0.09 in2.3 mm
04:06 PM 48.6°F9.2°C 41.4°F5.2°C 76% 8.0 mph NW12.9 kmh NW 14.0 mph22.5 kmh 29.65 in1004.1 mb 0.00 in0.0 mm 0.00 in0.0 mm 0.09 in2.3 mm
04:09 PM 48.6°F9.2°C 41.4°F5.2°C 76% 8.0 mph NW12.9 kmh NW 14.0 mph22.5 kmh 29.65 in1004.1 mb 0.00 in0.0 mm 0.00 in0.0 mm 0.09 in2.3 mm
04:12 PM 48.6°F9.2°C 41.4°F5.2°C 76% 7.0 mph NW11.3 kmh NW 15.0 mph24.1 kmh 29.66 in1004.4 mb 0.00 in0.0 mm 0.00 in0.0 mm 0.09 in2.3 mm
04:15 PM 48.4°F9.1°C 41.2°F5.1°C 76% 7.0 mph NW11.3 kmh NW 16.0 mph25.7 kmh 29.66 in1004.4 mb 0.00 in0.0 mm 0.00 in0.0 mm 0.09 in2.3 mm
04:18 PM 48.4°F9.1°C 41.0°F5.0°C 76% 7.0 mph NW11.3 kmh NW 16.0 mph25.7 kmh 29.66 in1004.4 mb 0.00 in0.0 mm 0.00 in0.0 mm 0.09 in2.3 mm
04:21 PM 48.2°F9.0°C 41.0°F5.0°C 76% 7.0 mph WNW11.3 kmh WNW 16.0 mph25.7 kmh 29.66 in1004.4 mb 0.00 in0.0 mm 0.00 in0.0 mm 0.09 in2.3 mm
04:24 PM 48.0°F8.9°C 40.8°F4.9°C 76% 7.0 mph WNW11.3 kmh WNW 15.0 mph24.1 kmh 29.66 in1004.4 mb 0.00 in0.0 mm 0.00 in0.0 mm 0.09 in2.3 mm
04:27 PM 48.0°F8.9°C 41.2°F5.1°C 77% 7.0 mph NW11.3 kmh NW 16.0 mph25.7 kmh 29.67 in1004.7 mb 0.00 in0.0 mm 0.00 in0.0 mm 0.09 in2.3 mm
04:30 PM 47.8°F8.8°C 41.0°F5.0°C 77% 6.0 mph NW9.7 kmh NW 16.0 mph25.7 kmh 29.67 in1004.7 mb 0.00 in0.0 mm 0.00 in0.0 mm 0.09 in2.3 mm
04:33 PM 47.8°F8.8°C 41.0°F5.0°C 77% 7.0 mph NW11.3 kmh NW 16.0 mph25.7 kmh 29.67 in1004.7 mb 0.00 in0.0 mm 0.00 in0.0 mm 0.09 in2.3 mm
04:36 PM 47.8°F8.8°C 41.0°F5.0°C 77% 6.0 mph NW9.7 kmh NW 15.0 mph24.1 kmh 29.68 in1005.1 mb 0.00 in0.0 mm 0.00 in0.0 mm 0.09 in2.3 mm
04:39 PM 47.7°F8.7°C 40.8°F4.9°C 77% 6.0 mph NW9.7 kmh NW 12.0 mph19.3 kmh 29.68 in1005.1 mb 0.00 in0.0 mm 0.00 in0.0 mm 0.09 in2.3 mm
04:42 PM 47.5°F8.6°C 40.6°F4.8°C 77% 5.0 mph NW8.0 kmh NW 12.0 mph19.3 kmh 29.68 in1005.1 mb 0.00 in0.0 mm 0.00 in0.0 mm 0.09 in2.3 mm
04:45 PM 47.5°F8.6°C 40.6°F4.8°C 77% 5.0 mph WNW8.0 kmh WNW 13.0 mph20.9 kmh 29.69 in1005.4 mb 0.00 in0.0 mm 0.00 in0.0 mm 0.09 in2.3 mm
04:48 PM 47.3°F8.5°C 40.5°F4.7°C 77% 5.0 mph WNW8.0 kmh WNW 13.0 mph20.9 kmh 29.69 in1005.4 mb 0.00 in0.0 mm 0.00 in0.0 mm 0.09 in2.3 mm
04:51 PM 47.1°F8.4°C 40.3°F4.6°C 77% 5.0 mph WNW8.0 kmh WNW 14.0 mph22.5 kmh 29.70 in1005.8 mb 0.00 in0.0 mm 0.00 in0.0 mm 0.09 in2.3 mm
04:54 PM 47.1°F8.4°C 40.3°F4.6°C 77% 5.0 mph WNW8.0 kmh WNW 15.0 mph24.1 kmh 29.70 in1005.8 mb 0.00 in0.0 mm 0.00 in0.0 mm 0.09 in2.3 mm
04:57 PM 47.1°F8.4°C 40.6°F4.8°C 78% 6.0 mph WNW9.7 kmh WNW 15.0 mph24.1 kmh 29.70 in1005.8 mb 0.00 in0.0 mm 0.00 in0.0 mm 0.09 in2.3 mm
05:00 PM 46.9°F8.3°C 40.5°F4.7°C 78% 6.0 mph WNW9.7 kmh WNW 15.0 mph24.1 kmh 29.70 in1005.8 mb 0.00 in0.0 mm 0.00 in0.0 mm 0.09 in2.3 mm
05:03 PM 46.8°F8.2°C 40.3°F4.6°C 78% 6.0 mph WNW9.7 kmh WNW 15.0 mph24.1 kmh 29.71 in1006.1 mb 0.00 in0.0 mm 0.00 in0.0 mm 0.09 in2.3 mm
05:06 PM 46.8°F8.2°C 40.3°F4.6°C 78% 5.0 mph WNW8.0 kmh WNW 13.0 mph20.9 kmh 29.71 in1006.1 mb 0.00 in0.0 mm 0.00 in0.0 mm 0.09 in2.3 mm
05:09 PM 46.8°F8.2°C 40.5°F4.7°C 79% 5.0 mph WNW8.0 kmh WNW 13.0 mph20.9 kmh 29.71 in1006.1 mb 0.00 in0.0 mm 0.00 in0.0 mm 0.09 in2.3 mm
05:12 PM 46.6°F8.1°C 40.3°F4.6°C 79% 6.0 mph WNW9.7 kmh WNW 12.0 mph19.3 kmh 29.71 in1006.1 mb 0.00 in0.0 mm 0.00 in0.0 mm 0.09 in2.3 mm
05:15 PM 46.4°F8.0°C 40.3°F4.6°C 79% 6.0 mph W9.7 kmh W 12.0 mph19.3 kmh 29.71 in1006.1 mb 0.00 in0.0 mm 0.00 in0.0 mm 0.09 in2.3 mm
05:18 PM 46.2°F7.9°C 40.1°F4.5°C 79% 5.0 mph WNW8.0 kmh WNW 12.0 mph19.3 kmh 29.72 in1006.4 mb 0.00 in0.0 mm 0.00 in0.0 mm 0.09 in2.3 mm
05:21 PM 46.2°F7.9°C 40.5°F4.7°C 80% 5.0 mph WNW8.0 kmh WNW 12.0 mph19.3 kmh 29.71 in1006.1 mb 0.00 in0.0 mm 0.00 in0.0 mm 0.09 in2.3 mm
05:24 PM 46.2°F7.9°C 40.3°F4.6°C 80% 5.0 mph WNW8.0 kmh WNW 11.0 mph17.7 kmh 29.72 in1006.4 mb 0.00 in0.0 mm 0.00 in0.0 mm 0.09 in2.3 mm
05:27 PM 46.0°F7.8°C 40.3°F4.6°C 80% 4.0 mph WNW6.4 kmh WNW 11.0 mph17.7 kmh 29.72 in1006.4 mb 0.00 in0.0 mm 0.00 in0.0 mm 0.09 in2.3 mm
05:30 PM 46.0°F7.8°C 40.1°F4.5°C 80% 4.0 mph WNW6.4 kmh WNW 10.0 mph16.1 kmh 29.72 in1006.4 mb 0.00 in0.0 mm 0.00 in0.0 mm 0.09 in2.3 mm
05:33 PM 45.9°F7.7°C 39.9°F4.4°C 80% 4.0 mph NW6.4 kmh NW 9.0 mph14.5 kmh 29.72 in1006.4 mb 0.00 in0.0 mm 0.00 in0.0 mm 0.09 in2.3 mm
05:36 PM 45.7°F7.6°C 40.1°F4.5°C 81% 3.0 mph NW4.8 kmh NW 9.0 mph14.5 kmh 29.73 in1006.8 mb 0.00 in0.0 mm 0.00 in0.0 mm 0.09 in2.3 mm
05:39 PM 45.3°F7.4°C 39.9°F4.4°C 81% 4.0 mph NW6.4 kmh NW 9.0 mph14.5 kmh 29.73 in1006.8 mb 0.00 in0.0 mm 0.00 in0.0 mm 0.09 in2.3 mm
05:42 PM 45.3°F7.4°C 39.7°F4.3°C 81% 4.0 mph NW6.4 kmh NW 9.0 mph14.5 kmh 29.72 in1006.4 mb 0.00 in0.0 mm 0.00 in0.0 mm 0.09 in2.3 mm
05:45 PM 45.3°F7.4°C 40.1°F4.5°C 82% 4.0 mph NW6.4 kmh NW 9.0 mph14.5 kmh 29.73 in1006.8 mb 0.00 in0.0 mm 0.00 in0.0 mm 0.09 in2.3 mm
05:48 PM 45.3°F7.4°C 40.1°F4.5°C 82% 4.0 mph NW6.4 kmh NW 9.0 mph14.5 kmh 29.72 in1006.4 mb 0.00 in0.0 mm 0.00 in0.0 mm 0.09 in2.3 mm
05:51 PM 45.3°F7.4°C 40.1°F4.5°C 82% 4.0 mph NW6.4 kmh NW 9.0 mph14.5 kmh 29.73 in1006.8 mb 0.00 in0.0 mm 0.00 in0.0 mm 0.09 in2.3 mm
05:54 PM 45.3°F7.4°C 40.5°F4.7°C 83% 4.0 mph NW6.4 kmh NW 11.0 mph17.7 kmh 29.73 in1006.8 mb 0.00 in0.0 mm 0.00 in0.0 mm 0.09 in2.3 mm
05:57 PM 45.5°F7.5°C 40.3°F4.6°C 82% 4.0 mph NW6.4 kmh NW 15.0 mph24.1 kmh 29.74 in1007.1 mb 0.00 in0.0 mm 0.00 in0.0 mm 0.09 in2.3 mm
06:00 PM 45.5°F7.5°C 40.3°F4.6°C 82% 4.0 mph WNW6.4 kmh WNW 15.0 mph24.1 kmh 29.74 in1007.1 mb 0.00 in0.0 mm 0.00 in0.0 mm 0.09 in2.3 mm
06:03 PM 45.7°F7.6°C 40.5°F4.7°C 82% 4.0 mph WNW6.4 kmh WNW 15.0 mph24.1 kmh 29.75 in1007.5 mb 0.00 in0.0 mm 0.00 in0.0 mm 0.09 in2.3 mm
06:06 PM 45.7°F7.6°C 40.5°F4.7°C 82% 3.0 mph W4.8 kmh W 13.0 mph20.9 kmh 29.76 in1007.8 mb 0.00 in0.0 mm 0.00 in0.0 mm 0.09 in2.3 mm
06:09 PM 45.7°F7.6°C 40.5°F4.7°C 82% 3.0 mph W4.8 kmh W 10.0 mph16.1 kmh 29.76 in1007.8 mb 0.00 in0.0 mm 0.00 in0.0 mm 0.09 in2.3 mm
06:12 PM 45.7°F7.6°C 40.5°F4.7°C 82% 3.0 mph W4.8 kmh W 10.0 mph16.1 kmh 29.76 in1007.8 mb 0.00 in0.0 mm 0.00 in0.0 mm 0.09 in2.3 mm
06:15 PM 45.7°F7.6°C 40.5°F4.7°C 82% 3.0 mph WSW4.8 kmh WSW 8.0 mph12.9 kmh 29.76 in1007.8 mb 0.00 in0.0 mm 0.00 in0.0 mm 0.09 in2.3 mm
06:18 PM 45.7°F7.6°C 40.8°F4.9°C 83% 3.0 mph WSW4.8 kmh WSW 8.0 mph12.9 kmh 29.77 in1008.1 mb 0.00 in0.0 mm 0.00 in0.0 mm 0.09 in2.3 mm
06:21 PM 45.5°F7.5°C 40.6°F4.8°C 83% 3.0 mph WSW4.8 kmh WSW 8.0 mph12.9 kmh 29.76 in1007.8 mb 0.00 in0.0 mm 0.00 in0.0 mm 0.09 in2.3 mm
06:24 PM 45.5°F7.5°C 40.6°F4.8°C 83% 3.0 mph W4.8 kmh W 9.0 mph14.5 kmh 29.76 in1007.8 mb 0.00 in0.0 mm 0.00 in0.0 mm 0.09 in2.3 mm
06:27 PM 45.5°F7.5°C 40.6°F4.8°C 83% 4.0 mph W6.4 kmh W 9.0 mph14.5 kmh 29.76 in1007.8 mb 0.00 in0.0 mm 0.00 in0.0 mm 0.09 in2.3 mm
06:30 PM 45.7°F7.6°C 40.8°F4.9°C 83% 4.0 mph W6.4 kmh W 10.0 mph16.1 kmh 29.76 in1007.8 mb 0.00 in0.0 mm 0.00 in0.0 mm 0.09 in2.3 mm
06:33 PM 45.9°F7.7°C 41.0°F5.0°C 83% 5.0 mph WNW8.0 kmh WNW 11.0 mph17.7 kmh 29.76 in1007.8 mb 0.00 in0.0 mm 0.00 in0.0 mm 0.09 in2.3 mm
06:36 PM 45.9°F7.7°C 41.0°F5.0°C 83% 5.0 mph WNW8.0 kmh WNW 11.0 mph17.7 kmh 29.76 in1007.8 mb 0.00 in0.0 mm 0.00 in0.0 mm 0.09 in2.3 mm
06:39 PM 46.0°F7.8°C 40.8°F4.9°C 82% 5.0 mph WNW8.0 kmh WNW 11.0 mph17.7 kmh 29.76 in1007.8 mb 0.00 in0.0 mm 0.00 in0.0 mm 0.09 in2.3 mm
06:42 PM 46.0°F7.8°C 40.8°F4.9°C 82% 5.0 mph WNW8.0 kmh WNW 12.0 mph19.3 kmh 29.76 in1007.8 mb 0.00 in0.0 mm 0.00 in0.0 mm 0.09 in2.3 mm
06:45 PM 46.2°F7.9°C 41.0°F5.0°C 82% 4.0 mph WNW6.4 kmh WNW 12.0 mph19.3 kmh 29.76 in1007.8 mb 0.00 in0.0 mm 0.00 in0.0 mm 0.09 in2.3 mm
06:48 PM 46.2°F7.9°C 41.0°F5.0°C 82% 5.0 mph WNW8.0 kmh WNW 12.0 mph19.3 kmh 29.77 in1008.1 mb 0.00 in0.0 mm 0.00 in0.0 mm 0.09 in2.3 mm
06:51 PM 46.4°F8.0°C 41.2°F5.1°C 82% 4.0 mph WNW6.4 kmh WNW 11.0 mph17.7 kmh 29.77 in1008.1 mb 0.00 in0.0 mm 0.00 in0.0 mm 0.09 in2.3 mm
06:54 PM 46.4°F8.0°C 40.8°F4.9°C 81% 5.0 mph WNW8.0 kmh WNW 12.0 mph19.3 kmh 29.77 in1008.1 mb 0.00 in0.0 mm 0.00 in0.0 mm 0.09 in2.3 mm
06:57 PM 46.4°F8.0°C 40.8°F4.9°C 81% 5.0 mph WNW8.0 kmh WNW 12.0 mph19.3 kmh 29.77 in1008.1 mb 0.00 in0.0 mm 0.00 in0.0 mm 0.09 in2.3 mm
07:00 PM 46.4°F8.0°C 40.8°F4.9°C 81% 5.0 mph W8.0 kmh W 12.0 mph19.3 kmh 29.78 in1008.5 mb 0.00 in0.0 mm 0.00 in0.0 mm 0.09 in2.3 mm
07:03 PM 46.4°F8.0°C 40.8°F4.9°C 81% 4.0 mph W6.4 kmh W 12.0 mph19.3 kmh 29.78 in1008.5 mb 0.00 in0.0 mm 0.00 in0.0 mm 0.09 in2.3 mm
07:06 PM 46.4°F8.0°C 40.8°F4.9°C 81% 4.0 mph W6.4 kmh W 9.0 mph14.5 kmh 29.78 in1008.5 mb 0.00 in0.0 mm 0.00 in0.0 mm 0.09 in2.3 mm
07:09 PM 46.4°F8.0°C 41.2°F5.1°C 82% 4.0 mph W6.4 kmh W 9.0 mph14.5 kmh 29.78 in1008.5 mb 0.00 in0.0 mm 0.00 in0.0 mm 0.09 in2.3 mm
07:12 PM 46.4°F8.0°C 41.2°F5.1°C 82% 4.0 mph W6.4 kmh W 9.0 mph14.5 kmh 29.78 in1008.5 mb 0.00 in0.0 mm 0.00 in0.0 mm 0.09 in2.3 mm
07:15 PM 46.4°F8.0°C 40.8°F4.9°C 81% 4.0 mph W6.4 kmh W 9.0 mph14.5 kmh 29.78 in1008.5 mb 0.00 in0.0 mm 0.00 in0.0 mm 0.09 in2.3 mm
07:18 PM 46.2°F7.9°C 41.2°F5.1°C 82% 4.0 mph W6.4 kmh W 8.0 mph12.9 kmh 29.78 in1008.5 mb 0.00 in0.0 mm 0.00 in0.0 mm 0.09 in2.3 mm
07:21 PM 46.2°F7.9°C 41.2°F5.1°C 82% 4.0 mph W6.4 kmh W 9.0 mph14.5 kmh 29.78 in1008.5 mb 0.00 in0.0 mm 0.00 in0.0 mm 0.09 in2.3 mm
07:24 PM 46.2°F7.9°C 41.0°F5.0°C 82% 4.0 mph W6.4 kmh W 9.0 mph14.5 kmh 29.78 in1008.5 mb 0.00 in0.0 mm 0.00 in0.0 mm 0.09 in2.3 mm
07:27 PM 46.0°F7.8°C 40.8°F4.9°C 82% 4.0 mph WSW6.4 kmh WSW 9.0 mph14.5 kmh 29.78 in1008.5 mb 0.00 in0.0 mm 0.00 in0.0 mm 0.09 in2.3 mm
07:30 PM 46.0°F7.8°C 40.8°F4.9°C 82% 4.0 mph WSW6.4 kmh WSW 9.0 mph14.5 kmh 29.78 in1008.5 mb 0.00 in0.0 mm 0.00 in0.0 mm 0.09 in2.3 mm
07:33 PM 45.9°F7.7°C 41.0°F5.0°C 83% 4.0 mph W6.4 kmh W 9.0 mph14.5 kmh 29.78 in1008.5 mb 0.00 in0.0 mm 0.00 in0.0 mm 0.09 in2.3 mm
07:36 PM 45.9°F7.7°C 41.0°F5.0°C 83% 4.0 mph W6.4 kmh W 9.0 mph14.5 kmh 29.78 in1008.5 mb 0.00 in0.0 mm 0.00 in0.0 mm 0.09 in2.3 mm
07:39 PM 45.9°F7.7°C 41.0°F5.0°C 83% 5.0 mph W8.0 kmh W 11.0 mph17.7 kmh 29.77 in1008.1 mb 0.00 in0.0 mm 0.00 in0.0 mm 0.09 in2.3 mm
07:42 PM 45.9°F7.7°C 41.0°F5.0°C 83% 5.0 mph W8.0 kmh W 13.0 mph20.9 kmh 29.78 in1008.5 mb 0.00 in0.0 mm 0.00 in0.0 mm 0.09 in2.3 mm
07:45 PM 45.9°F7.7°C 41.0°F5.0°C 83% 6.0 mph W9.7 kmh W 13.0 mph20.9 kmh 29.78 in1008.5 mb 0.00 in0.0 mm 0.00 in0.0 mm 0.09 in2.3 mm
07:48 PM 45.9°F7.7°C 41.0°F5.0°C 83% 5.0 mph W8.0 kmh W 13.0 mph20.9 kmh 29.77 in1008.1 mb 0.00 in0.0 mm 0.00 in0.0 mm 0.09 in2.3 mm
07:51 PM 45.9°F7.7°C 41.0°F5.0°C 83% 4.0 mph W6.4 kmh W 9.0 mph14.5 kmh 29.78 in1008.5 mb 0.00 in0.0 mm 0.00 in0.0 mm 0.09 in2.3 mm
07:54 PM 45.9°F7.7°C 41.0°F5.0°C 83% 4.0 mph W6.4 kmh W 8.0 mph12.9 kmh 29.79 in1008.8 mb 0.00 in0.0 mm 0.00 in0.0 mm 0.09 in2.3 mm
07:57 PM 45.9°F7.7°C 41.0°F5.0°C 83% 3.0 mph W4.8 kmh W 8.0 mph12.9 kmh 29.79 in1008.8 mb 0.00 in0.0 mm 0.00 in0.0 mm 0.09 in2.3 mm
08:00 PM 45.9°F7.7°C 41.0°F5.0°C 83% 3.0 mph W4.8 kmh W 7.0 mph11.3 kmh 29.80 in1009.1 mb 0.00 in0.0 mm 0.00 in0.0 mm 0.09 in2.3 mm
08:03 PM 45.9°F7.7°C 41.0°F5.0°C 83% 3.0 mph WSW4.8 kmh WSW 7.0 mph11.3 kmh 29.80 in1009.1 mb 0.00 in0.0 mm 0.00 in0.0 mm 0.09 in2.3 mm
08:06 PM 45.9°F7.7°C 41.0°F5.0°C 83% 3.0 mph WSW4.8 kmh WSW 7.0 mph11.3 kmh 29.80 in1009.1 mb 0.00 in0.0 mm 0.00 in0.0 mm 0.09 in2.3 mm
08:09 PM 45.9°F7.7°C 41.0°F5.0°C 83% 3.0 mph SW4.8 kmh SW 7.0 mph11.3 kmh 29.80 in1009.1 mb 0.00 in0.0 mm 0.00 in0.0 mm 0.09 in2.3 mm
08:12 PM 45.9°F7.7°C 41.2°F5.1°C 84% 4.0 mph SW6.4 kmh SW 10.0 mph16.1 kmh 29.80 in1009.1 mb 0.00 in0.0 mm 0.00 in0.0 mm 0.09 in2.3 mm
08:15 PM 45.9°F7.7°C 41.2°F5.1°C 84% 4.0 mph SW6.4 kmh SW 10.0 mph16.1 kmh 29.80 in1009.1 mb 0.00 in0.0 mm 0.00 in0.0 mm 0.09 in2.3 mm
08:18 PM 45.9°F7.7°C 41.2°F5.1°C 84% 4.0 mph WSW6.4 kmh WSW 10.0 mph16.1 kmh 29.80 in1009.1 mb 0.00 in0.0 mm 0.00 in0.0 mm 0.09 in2.3 mm
08:21 PM 45.7°F7.6°C 41.2°F5.1°C 84% 4.0 mph WSW6.4 kmh WSW 7.0 mph11.3 kmh 29.80 in1009.1 mb 0.00 in0.0 mm 0.00 in0.0 mm 0.09 in2.3 mm
08:24 PM 45.7°F7.6°C 41.2°F5.1°C 84% 4.0 mph WSW6.4 kmh WSW 7.0 mph11.3 kmh 29.80 in1009.1 mb 0.00 in0.0 mm 0.00 in0.0 mm 0.09 in2.3 mm
08:27 PM 45.7°F7.6°C 41.2°F5.1°C 84% 4.0 mph WSW6.4 kmh WSW 8.0 mph12.9 kmh 29.80 in1009.1 mb 0.00 in0.0 mm 0.00 in0.0 mm 0.09 in2.3 mm
08:30 PM 45.7°F7.6°C 41.2°F5.1°C 84% 4.0 mph WSW6.4 kmh WSW 8.0 mph12.9 kmh 29.80 in1009.1 mb 0.00 in0.0 mm 0.00 in0.0 mm 0.09 in2.3 mm
08:33 PM 45.7°F7.6°C 41.2°F5.1°C 84% 4.0 mph W6.4 kmh W 8.0 mph12.9 kmh 29.80 in1009.1 mb 0.00 in0.0 mm 0.00 in0.0 mm 0.09 in2.3 mm
08:36 PM 45.9°F7.7°C 41.2°F5.1°C 84% 3.0 mph W4.8 kmh W 8.0 mph12.9 kmh 29.80 in1009.1 mb 0.00 in0.0 mm 0.00 in0.0 mm 0.09 in2.3 mm
08:39 PM 45.9°F7.7°C 41.2°F5.1°C 84% 4.0 mph WSW6.4 kmh WSW 7.0 mph11.3 kmh 29.80 in1009.1 mb 0.00 in0.0 mm 0.00 in0.0 mm 0.09 in2.3 mm
08:42 PM 45.9°F7.7°C 41.4°F5.2°C 84% 4.0 mph WSW6.4 kmh WSW 8.0 mph12.9 kmh 29.80 in1009.1 mb 0.00 in0.0 mm 0.00 in0.0 mm 0.09 in2.3 mm
08:45 PM 45.9°F7.7°C 41.4°F5.2°C 84% 4.0 mph WSW6.4 kmh WSW 8.0 mph12.9 kmh 29.80 in1009.1 mb 0.00 in0.0 mm 0.00 in0.0 mm 0.09 in2.3 mm
08:48 PM 45.9°F7.7°C 41.4°F5.2°C 84% 4.0 mph WSW6.4 kmh WSW 10.0 mph16.1 kmh 29.80 in1009.1 mb 0.00 in0.0 mm 0.00 in0.0 mm 0.09 in2.3 mm
08:51 PM 45.9°F7.7°C 41.0°F5.0°C 83% 4.0 mph WSW6.4 kmh WSW 10.0 mph16.1 kmh 29.80 in1009.1 mb 0.00 in0.0 mm 0.00 in0.0 mm 0.09 in2.3 mm
08:54 PM 46.0°F7.8°C 41.2°F5.1°C 83% 3.0 mph WSW4.8 kmh WSW 10.0 mph16.1 kmh 29.80 in1009.1 mb 0.00 in0.0 mm 0.00 in0.0 mm 0.09 in2.3 mm
08:57 PM 46.0°F7.8°C 41.2°F5.1°C 83% 3.0 mph WSW4.8 kmh WSW 7.0 mph11.3 kmh 29.80 in1009.1 mb 0.00 in0.0 mm 0.00 in0.0 mm 0.09 in2.3 mm
09:00 PM 46.0°F7.8°C 41.2°F5.1°C 83% 3.0 mph WSW4.8 kmh WSW 7.0 mph11.3 kmh 29.80 in1009.1 mb 0.00 in0.0 mm 0.00 in0.0 mm 0.09 in2.3 mm
09:03 PM 46.0°F7.8°C 41.2°F5.1°C 83% 3.0 mph WSW4.8 kmh WSW 6.0 mph9.7 kmh 29.80 in1009.1 mb 0.00 in0.0 mm 0.00 in0.0 mm 0.09 in2.3 mm
09:06 PM 46.0°F7.8°C 41.2°F5.1°C 83% 3.0 mph WSW4.8 kmh WSW 6.0 mph9.7 kmh 29.80 in1009.1 mb 0.00 in0.0 mm 0.00 in0.0 mm 0.09 in2.3 mm
09:09 PM 46.0°F7.8°C 41.2°F5.1°C 83% 3.0 mph WSW4.8 kmh WSW 5.0 mph8.0 kmh 29.80 in1009.1 mb 0.00 in0.0 mm 0.00 in0.0 mm 0.09 in2.3 mm
09:12 PM 46.0°F7.8°C 41.2°F5.1°C 83% 3.0 mph WSW4.8 kmh WSW 6.0 mph9.7 kmh 29.81 in1009.5 mb 0.00 in0.0 mm 0.00 in0.0 mm 0.09 in2.3 mm
09:15 PM 45.9°F7.7°C 41.4°F5.2°C 84% 3.0 mph WSW4.8 kmh WSW 6.0 mph9.7 kmh 29.81 in1009.5 mb 0.00 in0.0 mm 0.00 in0.0 mm 0.09 in2.3 mm
09:18 PM 45.9°F7.7°C 41.4°F5.2°C 84% 3.0 mph WSW4.8 kmh WSW 6.0 mph9.7 kmh 29.81 in1009.5 mb 0.00 in0.0 mm 0.00 in0.0 mm 0.09 in2.3 mm
09:21 PM 45.9°F7.7°C 41.4°F5.2°C 84% 3.0 mph WSW4.8 kmh WSW 8.0 mph12.9 kmh 29.81 in1009.5 mb 0.00 in0.0 mm 0.00 in0.0 mm 0.09 in2.3 mm
09:24 PM 45.9°F7.7°C 41.4°F5.2°C 84% 3.0 mph WSW4.8 kmh WSW 8.0 mph12.9 kmh 29.81 in1009.5 mb 0.00 in0.0 mm 0.00 in0.0 mm 0.09 in2.3 mm
09:27 PM 45.9°F7.7°C 41.4°F5.2°C 84% 4.0 mph WSW6.4 kmh WSW 8.0 mph12.9 kmh 29.81 in1009.5 mb 0.00 in0.0 mm 0.00 in0.0 mm 0.09 in2.3 mm
09:30 PM 45.9°F7.7°C 41.4°F5.2°C 84% 4.0 mph SW6.4 kmh SW 7.0 mph11.3 kmh 29.80 in1009.1 mb 0.00 in0.0 mm 0.00 in0.0 mm 0.09 in2.3 mm
09:33 PM 45.9°F7.7°C 41.2°F5.1°C 84% 4.0 mph SW6.4 kmh SW 6.0 mph9.7 kmh 29.80 in1009.1 mb 0.00 in0.0 mm 0.00 in0.0 mm 0.09 in2.3 mm
09:36 PM 45.9°F7.7°C 41.2°F5.1°C 84% 3.0 mph WSW4.8 kmh WSW 6.0 mph9.7 kmh 29.80 in1009.1 mb 0.00 in0.0 mm 0.00 in0.0 mm 0.09 in2.3 mm
09:39 PM 45.9°F7.7°C 41.2°F5.1°C 84% 3.0 mph WSW4.8 kmh WSW 6.0 mph9.7 kmh 29.81 in1009.5 mb 0.00 in0.0 mm 0.00 in0.0 mm 0.09 in2.3 mm
09:42 PM 45.7°F7.6°C 41.4°F5.2°C 85% 4.0 mph WSW6.4 kmh WSW 7.0 mph11.3 kmh 29.81 in1009.5 mb 0.00 in0.0 mm 0.00 in0.0 mm 0.09 in2.3 mm
09:45 PM 45.9°F7.7°C 41.5°F5.3°C 85% 4.0 mph WSW6.4 kmh WSW 8.0 mph12.9 kmh 29.81 in1009.5 mb 0.00 in0.0 mm 0.00 in0.0 mm 0.09 in2.3 mm
09:48 PM 45.9°F7.7°C 41.5°F5.3°C 85% 5.0 mph WSW8.0 kmh WSW 8.0 mph12.9 kmh 29.81 in1009.5 mb 0.00 in0.0 mm 0.00 in0.0 mm 0.09 in2.3 mm
09:51 PM 45.9°F7.7°C 41.5°F5.3°C 85% 5.0 mph WSW8.0 kmh WSW 8.0 mph12.9 kmh 29.81 in1009.5 mb 0.00 in0.0 mm 0.00 in0.0 mm 0.09 in2.3 mm
09:54 PM 45.9°F7.7°C 41.5°F5.3°C 85% 5.0 mph SW8.0 kmh SW 8.0 mph12.9 kmh 29.81 in1009.5 mb 0.00 in0.0 mm 0.00 in0.0 mm 0.09 in2.3 mm
09:57 PM 45.9°F7.7°C 41.7°F5.4°C 85% 4.0 mph SW6.4 kmh SW 8.0 mph12.9 kmh 29.81 in1009.5 mb 0.00 in0.0 mm 0.00 in0.0 mm 0.09 in2.3 mm
10:00 PM 45.9°F7.7°C 41.7°F5.4°C 85% 4.0 mph SW6.4 kmh SW 8.0 mph12.9 kmh 29.80 in1009.1 mb 0.00 in0.0 mm 0.00 in0.0 mm 0.09 in2.3 mm
10:03 PM 45.9°F7.7°C 41.7°F5.4°C 85% 4.0 mph SW6.4 kmh SW 7.0 mph11.3 kmh 29.80 in1009.1 mb 0.00 in0.0 mm 0.00 in0.0 mm 0.09 in2.3 mm
10:06 PM 45.9°F7.7°C 41.5°F5.3°C 85% 4.0 mph SSW6.4 kmh SSW 6.0 mph9.7 kmh 29.79 in1008.8 mb 0.00 in0.0 mm 0.00 in0.0 mm 0.09 in2.3 mm
10:09 PM 45.9°F7.7°C 41.9°F5.5°C 86% 4.0 mph SSW6.4 kmh SSW 7.0 mph11.3 kmh 29.80 in1009.1 mb 0.00 in0.0 mm 0.00 in0.0 mm 0.09 in2.3 mm
10:12 PM 45.9°F7.7°C 41.9°F5.5°C 86% 4.0 mph SW6.4 kmh SW 8.0 mph12.9 kmh 29.80 in1009.1 mb 0.00 in0.0 mm 0.00 in0.0 mm 0.09 in2.3 mm
10:15 PM 45.9°F7.7°C 41.9°F5.5°C 86% 4.0 mph SW6.4 kmh SW 8.0 mph12.9 kmh 29.80 in1009.1 mb 0.00 in0.0 mm 0.00 in0.0 mm 0.09 in2.3 mm
10:18 PM 45.9°F7.7°C 41.9°F5.5°C 86% 4.0 mph SW6.4 kmh SW 8.0 mph12.9 kmh 29.80 in1009.1 mb 0.00 in0.0 mm 0.00 in0.0 mm 0.09 in2.3 mm
10:21 PM 45.9°F7.7°C 41.9°F5.5°C 86% 4.0 mph SW6.4 kmh SW 8.0 mph12.9 kmh 29.80 in1009.1 mb 0.00 in0.0 mm 0.00 in0.0 mm 0.09 in2.3 mm
10:24 PM 46.0°F7.8°C 42.1°F5.6°C 86% 4.0 mph SW6.4 kmh SW 7.0 mph11.3 kmh 29.80 in1009.1 mb 0.01 in0.3 mm 0.20 in5.1 mm 0.10 in2.5 mm
10:27 PM 46.0°F7.8°C 42.3°F5.7°C 87% 3.0 mph SW4.8 kmh SW 7.0 mph11.3 kmh 29.80 in1009.1 mb 0.01 in0.3 mm 0.00 in0.0 mm 0.10 in2.5 mm
10:30 PM 46.0°F7.8°C 42.3°F5.7°C 87% 3.0 mph SW4.8 kmh SW 6.0 mph9.7 kmh 29.81 in1009.5 mb 0.01 in0.3 mm 0.00 in0.0 mm 0.10 in2.5 mm
10:33 PM 45.9°F7.7°C 42.3°F5.7°C 87% 3.0 mph SW4.8 kmh SW 7.0 mph11.3 kmh 29.81 in1009.5 mb 0.01 in0.3 mm 0.00 in0.0 mm 0.10 in2.5 mm
10:36 PM 45.9°F7.7°C 42.6°F5.9°C 88% 4.0 mph SW6.4 kmh SW 7.0 mph11.3 kmh 29.81 in1009.5 mb 0.01 in0.3 mm 0.00 in0.0 mm 0.10 in2.5 mm
10:39 PM 45.9°F7.7°C 42.4°F5.8°C 88% 4.0 mph SW6.4 kmh SW 7.0 mph11.3 kmh 29.81 in1009.5 mb 0.01 in0.3 mm 0.00 in0.0 mm 0.10 in2.5 mm
10:42 PM 45.9°F7.7°C 42.4°F5.8°C 88% 4.0 mph SW6.4 kmh SW 7.0 mph11.3 kmh 29.81 in1009.5 mb 0.01 in0.3 mm 0.00 in0.0 mm 0.10 in2.5 mm
10:45 PM 45.9°F7.7°C 42.4°F5.8°C 88% 3.0 mph SW4.8 kmh SW 7.0 mph11.3 kmh 29.82 in1009.8 mb 0.01 in0.3 mm 0.00 in0.0 mm 0.10 in2.5 mm
10:48 PM 45.9°F7.7°C 42.8°F6.0°C 89% 3.0 mph SW4.8 kmh SW 7.0 mph11.3 kmh 29.82 in1009.8 mb 0.01 in0.3 mm 0.00 in0.0 mm 0.10 in2.5 mm
10:51 PM 45.7°F7.6°C 42.6°F5.9°C 89% 3.0 mph WSW4.8 kmh WSW 7.0 mph11.3 kmh 29.83 in1010.2 mb 0.01 in0.3 mm 0.00 in0.0 mm 0.10 in2.5 mm
10:54 PM 45.7°F7.6°C 42.6°F5.9°C 89% 3.0 mph WSW4.8 kmh WSW 6.0 mph9.7 kmh 29.83 in1010.2 mb 0.02 in0.5 mm 0.20 in5.1 mm 0.12 in3.0 mm
10:57 PM 45.7°F7.6°C 42.6°F5.9°C 89% 2.0 mph W3.2 kmh W 6.0 mph9.7 kmh 29.83 in1010.2 mb 0.04 in1.0 mm 0.40 in10.2 mm 0.13 in3.3 mm
11:00 PM 45.7°F7.6°C 43.0°F6.1°C 90% 2.0 mph W3.2 kmh W 4.0 mph6.4 kmh 29.84 in1010.5 mb 0.04 in1.0 mm 0.00 in0.0 mm 0.13 in3.3 mm
11:03 PM 45.7°F7.6°C 42.8°F6.0°C 90% 2.0 mph W3.2 kmh W 6.0 mph9.7 kmh 29.84 in1010.5 mb 0.06 in1.5 mm 0.40 in10.2 mm 0.15 in3.8 mm
11:06 PM 45.7°F7.6°C 42.8°F6.0°C 90% 3.0 mph W4.8 kmh W 6.0 mph9.7 kmh 29.84 in1010.5 mb 0.09 in2.3 mm 0.60 in15.2 mm 0.18 in4.6 mm
11:09 PM 45.5°F7.5°C 42.8°F6.0°C 90% 3.0 mph W4.8 kmh W 6.0 mph9.7 kmh 29.84 in1010.5 mb 0.10 in2.5 mm 0.20 in5.1 mm 0.20 in5.1 mm
11:12 PM 45.5°F7.5°C 43.0°F6.1°C 91% 2.0 mph W3.2 kmh W 6.0 mph9.7 kmh 29.84 in1010.5 mb 0.11 in2.8 mm 0.20 in5.1 mm 0.20 in5.1 mm
11:15 PM 45.5°F7.5°C 43.0°F6.1°C 91% 2.0 mph W3.2 kmh W 6.0 mph9.7 kmh 29.84 in1010.5 mb 0.11 in2.8 mm 0.00 in0.0 mm 0.20 in5.1 mm
11:18 PM 45.3°F7.4°C 43.0°F6.1°C 91% 2.0 mph W3.2 kmh W 6.0 mph9.7 kmh 29.84 in1010.5 mb 0.11 in2.8 mm 0.00 in0.0 mm 0.20 in5.1 mm
11:21 PM 45.3°F7.4°C 43.0°F6.1°C 91% 2.0 mph W3.2 kmh W 6.0 mph9.7 kmh 29.84 in1010.5 mb 0.11 in2.8 mm 0.00 in0.0 mm 0.20 in5.1 mm
11:24 PM 45.3°F7.4°C 42.8°F6.0°C 91% 2.0 mph W3.2 kmh W 6.0 mph9.7 kmh 29.84 in1010.5 mb 0.11 in2.8 mm 0.00 in0.0 mm 0.21 in5.3 mm
11:27 PM 45.3°F7.4°C 43.2°F6.2°C 92% 2.0 mph W3.2 kmh W 6.0 mph9.7 kmh 29.84 in1010.5 mb 0.11 in2.8 mm 0.00 in0.0 mm 0.21 in5.3 mm
11:30 PM 45.3°F7.4°C 43.2°F6.2°C 92% 3.0 mph WSW4.8 kmh WSW 6.0 mph9.7 kmh 29.84 in1010.5 mb 0.11 in2.8 mm 0.00 in0.0 mm 0.21 in5.3 mm
11:33 PM 45.1°F7.3°C 43.0°F6.1°C 92% 2.0 mph WSW3.2 kmh WSW 6.0 mph9.7 kmh 29.84 in1010.5 mb 0.11 in2.8 mm 0.00 in0.0 mm 0.21 in5.3 mm
11:36 PM 45.1°F7.3°C 43.0°F6.1°C 92% 2.0 mph WSW3.2 kmh WSW 6.0 mph9.7 kmh 29.83 in1010.2 mb 0.11 in2.8 mm 0.00 in0.0 mm 0.21 in5.3 mm
11:39 PM 45.1°F7.3°C 43.0°F6.1°C 92% 2.0 mph WSW3.2 kmh WSW 4.0 mph6.4 kmh 29.83 in1010.2 mb 0.11 in2.8 mm 0.00 in0.0 mm 0.21 in5.3 mm
11:42 PM 45.1°F7.3°C 43.0°F6.1°C 92% 2.0 mph SW3.2 kmh SW 5.0 mph8.0 kmh 29.83 in1010.2 mb 0.11 in2.8 mm 0.00 in0.0 mm 0.21 in5.3 mm
11:45 PM 45.1°F7.3°C 43.0°F6.1°C 92% 2.0 mph SSW3.2 kmh SSW 5.0 mph8.0 kmh 29.83 in1010.2 mb 0.12 in3.0 mm 0.20 in5.1 mm 0.22 in5.6 mm
11:48 PM 45.1°F7.3°C 43.0°F6.1°C 92% 3.0 mph S4.8 kmh S 5.0 mph8.0 kmh 29.82 in1009.8 mb 0.12 in3.0 mm 0.00 in0.0 mm 0.22 in5.6 mm
11:51 PM 45.0°F7.2°C 43.2°F6.2°C 93% 3.0 mph S4.8 kmh S 5.0 mph8.0 kmh 29.82 in1009.8 mb 0.11 in2.8 mm 0.00 in0.0 mm 0.22 in5.6 mm
11:54 PM 45.0°F7.2°C 43.2°F6.2°C 93% 3.0 mph S4.8 kmh S 5.0 mph8.0 kmh 29.82 in1009.8 mb 0.10 in2.5 mm 0.00 in0.0 mm 0.22 in5.6 mm
11:57 PM 45.0°F7.2°C 43.2°F6.2°C 93% 3.0 mph S4.8 kmh S 5.0 mph8.0 kmh 29.82 in1009.8 mb 0.09 in2.3 mm 0.00 in0.0 mm 0.22 in5.6 mm